<?xml version="1.0" encoding="UTF-8" standalone="no" ?>
<gpx xmlns="http://www.topografix.com/GPX/1/1" xmlns:xsi="http://www.w3.org/2001/XMLSchema-instance" xsi:schemaLocation="http://www.topografix.com/GPX/1/1 http://www.topografix.com/GPX/1/1/gpx.xsd" version="1.1" creator="VisuGPX - https://www.visugpx.com">
  <metadata>
    <name>Jambville</name>
    <desc><![CDATA[rando Jambville]]></desc>
  </metadata>
  <trk>
    <name><![CDATA[jambville 20 aout 2013 vexin]]></name>
    <trkseg>
      <trkpt lat="49.04812" lon="1.85358">
        <ele>127.99</ele>
        <time>2013-08-20T08:01:07Z</time>
      </trkpt>
      <trkpt lat="49.04812" lon="1.85361">
        <ele>128.95</ele>
        <time>2013-08-20T08:01:24Z</time>
      </trkpt>
      <trkpt lat="49.0481" lon="1.85357">
        <ele>128.47</ele>
        <time>2013-08-20T08:01:29Z</time>
      </trkpt>
      <trkpt lat="49.04809" lon="1.85354">
        <ele>127.99</ele>
        <time>2013-08-20T08:01:31Z</time>
      </trkpt>
      <trkpt lat="49.04808" lon="1.85346">
        <ele>128.47</ele>
        <time>2013-08-20T08:01:41Z</time>
      </trkpt>
      <trkpt lat="49.04809" lon="1.85338">
        <ele>128.95</ele>
        <time>2013-08-20T08:01:55Z</time>
      </trkpt>
      <trkpt lat="49.04806" lon="1.85322">
        <ele>128.47</ele>
        <time>2013-08-20T08:02:11Z</time>
      </trkpt>
      <trkpt lat="49.04806" lon="1.85304">
        <ele>129.43</ele>
        <time>2013-08-20T08:02:26Z</time>
      </trkpt>
      <trkpt lat="49.04805" lon="1.85282">
        <ele>128.95</ele>
        <time>2013-08-20T08:02:43Z</time>
      </trkpt>
      <trkpt lat="49.04806" lon="1.85259">
        <ele>129.92</ele>
        <time>2013-08-20T08:02:58Z</time>
      </trkpt>
      <trkpt lat="49.04809" lon="1.8525">
        <ele>129.92</ele>
        <time>2013-08-20T08:03:04Z</time>
      </trkpt>
      <trkpt lat="49.04824" lon="1.85233">
        <ele>129.92</ele>
        <time>2013-08-20T08:03:22Z</time>
      </trkpt>
      <trkpt lat="49.04838" lon="1.85228">
        <ele>129.43</ele>
        <time>2013-08-20T08:03:35Z</time>
      </trkpt>
      <trkpt lat="49.04846" lon="1.85217">
        <ele>129.92</ele>
        <time>2013-08-20T08:03:47Z</time>
      </trkpt>
      <trkpt lat="49.0487" lon="1.85211">
        <ele>129.92</ele>
        <time>2013-08-20T08:04:08Z</time>
      </trkpt>
      <trkpt lat="49.04894" lon="1.85208">
        <ele>129.43</ele>
        <time>2013-08-20T08:04:28Z</time>
      </trkpt>
      <trkpt lat="49.04907" lon="1.85193">
        <ele>128.95</ele>
        <time>2013-08-20T08:04:45Z</time>
      </trkpt>
      <trkpt lat="49.04924" lon="1.85182">
        <ele>129.92</ele>
        <time>2013-08-20T08:05:01Z</time>
      </trkpt>
      <trkpt lat="49.04933" lon="1.85167">
        <ele>129.92</ele>
        <time>2013-08-20T08:05:13Z</time>
      </trkpt>
      <trkpt lat="49.04939" lon="1.8516">
        <ele>129.92</ele>
        <time>2013-08-20T08:05:19Z</time>
      </trkpt>
      <trkpt lat="49.04958" lon="1.85145">
        <ele>131.36</ele>
        <time>2013-08-20T08:05:37Z</time>
      </trkpt>
      <trkpt lat="49.04983" lon="1.85134">
        <ele>130.88</ele>
        <time>2013-08-20T08:05:59Z</time>
      </trkpt>
      <trkpt lat="49.04985" lon="1.85134">
        <ele>130.4</ele>
        <time>2013-08-20T08:06:01Z</time>
      </trkpt>
      <trkpt lat="49.04998" lon="1.85131">
        <ele>130.4</ele>
        <time>2013-08-20T08:06:11Z</time>
      </trkpt>
      <trkpt lat="49.05019" lon="1.85119">
        <ele>127.03</ele>
        <time>2013-08-20T08:06:28Z</time>
      </trkpt>
      <trkpt lat="49.05043" lon="1.85117">
        <ele>126.07</ele>
        <time>2013-08-20T08:06:48Z</time>
      </trkpt>
      <trkpt lat="49.05046" lon="1.85118">
        <ele>125.59</ele>
        <time>2013-08-20T08:06:51Z</time>
      </trkpt>
      <trkpt lat="49.05053" lon="1.85121">
        <ele>125.11</ele>
        <time>2013-08-20T08:06:58Z</time>
      </trkpt>
      <trkpt lat="49.05079" lon="1.8513">
        <ele>123.19</ele>
        <time>2013-08-20T08:07:19Z</time>
      </trkpt>
      <trkpt lat="49.05103" lon="1.85132">
        <ele>122.22</ele>
        <time>2013-08-20T08:07:39Z</time>
      </trkpt>
      <trkpt lat="49.0512" lon="1.85117">
        <ele>122.22</ele>
        <time>2013-08-20T08:07:55Z</time>
      </trkpt>
      <trkpt lat="49.05124" lon="1.85107">
        <ele>121.74</ele>
        <time>2013-08-20T08:08:02Z</time>
      </trkpt>
      <trkpt lat="49.05138" lon="1.8508">
        <ele>122.22</ele>
        <time>2013-08-20T08:08:20Z</time>
      </trkpt>
      <trkpt lat="49.05152" lon="1.85053">
        <ele>123.67</ele>
        <time>2013-08-20T08:08:38Z</time>
      </trkpt>
      <trkpt lat="49.05165" lon="1.85028">
        <ele>124.63</ele>
        <time>2013-08-20T08:08:56Z</time>
      </trkpt>
      <trkpt lat="49.05178" lon="1.85006">
        <ele>126.07</ele>
        <time>2013-08-20T08:09:13Z</time>
      </trkpt>
      <trkpt lat="49.05191" lon="1.84985">
        <ele>127.99</ele>
        <time>2013-08-20T08:09:30Z</time>
      </trkpt>
      <trkpt lat="49.05205" lon="1.84966">
        <ele>128.95</ele>
        <time>2013-08-20T08:09:47Z</time>
      </trkpt>
      <trkpt lat="49.0521" lon="1.8496">
        <ele>129.43</ele>
        <time>2013-08-20T08:09:53Z</time>
      </trkpt>
      <trkpt lat="49.05221" lon="1.84945">
        <ele>130.88</ele>
        <time>2013-08-20T08:10:07Z</time>
      </trkpt>
      <trkpt lat="49.05235" lon="1.84923">
        <ele>132.32</ele>
        <time>2013-08-20T08:10:27Z</time>
      </trkpt>
      <trkpt lat="49.05245" lon="1.84907">
        <ele>133.76</ele>
        <time>2013-08-20T08:10:42Z</time>
      </trkpt>
      <trkpt lat="49.05248" lon="1.84902">
        <ele>134.24</ele>
        <time>2013-08-20T08:10:57Z</time>
      </trkpt>
      <trkpt lat="49.05251" lon="1.84894">
        <ele>134.24</ele>
        <time>2013-08-20T08:11:08Z</time>
      </trkpt>
      <trkpt lat="49.05252" lon="1.84895">
        <ele>134.24</ele>
        <time>2013-08-20T08:11:16Z</time>
      </trkpt>
      <trkpt lat="49.05254" lon="1.8489">
        <ele>134.24</ele>
        <time>2013-08-20T08:11:21Z</time>
      </trkpt>
      <trkpt lat="49.05255" lon="1.84885">
        <ele>134.72</ele>
        <time>2013-08-20T08:11:25Z</time>
      </trkpt>
      <trkpt lat="49.05264" lon="1.84869">
        <ele>134.72</ele>
        <time>2013-08-20T08:11:42Z</time>
      </trkpt>
      <trkpt lat="49.05263" lon="1.84868">
        <ele>134.72</ele>
        <time>2013-08-20T08:11:43Z</time>
      </trkpt>
      <trkpt lat="49.05264" lon="1.84863">
        <ele>135.2</ele>
        <time>2013-08-20T08:11:47Z</time>
      </trkpt>
      <trkpt lat="49.05264" lon="1.8486">
        <ele>135.68</ele>
        <time>2013-08-20T08:11:49Z</time>
      </trkpt>
      <trkpt lat="49.05264" lon="1.84854">
        <ele>135.68</ele>
        <time>2013-08-20T08:11:53Z</time>
      </trkpt>
      <trkpt lat="49.05265" lon="1.84849">
        <ele>136.16</ele>
        <time>2013-08-20T08:11:57Z</time>
      </trkpt>
      <trkpt lat="49.0527" lon="1.84828">
        <ele>137.61</ele>
        <time>2013-08-20T08:12:12Z</time>
      </trkpt>
      <trkpt lat="49.05274" lon="1.84802">
        <ele>139.53</ele>
        <time>2013-08-20T08:12:29Z</time>
      </trkpt>
      <trkpt lat="49.05276" lon="1.84782">
        <ele>140.97</ele>
        <time>2013-08-20T08:12:44Z</time>
      </trkpt>
      <trkpt lat="49.05275" lon="1.8478">
        <ele>140.49</ele>
        <time>2013-08-20T08:12:45Z</time>
      </trkpt>
      <trkpt lat="49.05273" lon="1.84777">
        <ele>140.97</ele>
        <time>2013-08-20T08:12:48Z</time>
      </trkpt>
      <trkpt lat="49.05276" lon="1.84759">
        <ele>142.41</ele>
        <time>2013-08-20T08:13:01Z</time>
      </trkpt>
      <trkpt lat="49.05277" lon="1.84746">
        <ele>142.41</ele>
        <time>2013-08-20T08:13:09Z</time>
      </trkpt>
      <trkpt lat="49.05278" lon="1.84737">
        <ele>142.89</ele>
        <time>2013-08-20T08:13:14Z</time>
      </trkpt>
      <trkpt lat="49.05281" lon="1.84704">
        <ele>143.85</ele>
        <time>2013-08-20T08:13:33Z</time>
      </trkpt>
      <trkpt lat="49.05281" lon="1.84702">
        <ele>143.85</ele>
        <time>2013-08-20T08:13:34Z</time>
      </trkpt>
      <trkpt lat="49.05281" lon="1.84694">
        <ele>143.85</ele>
        <time>2013-08-20T08:13:38Z</time>
      </trkpt>
      <trkpt lat="49.05281" lon="1.84687">
        <ele>144.82</ele>
        <time>2013-08-20T08:13:42Z</time>
      </trkpt>
      <trkpt lat="49.05282" lon="1.84675">
        <ele>144.82</ele>
        <time>2013-08-20T08:13:49Z</time>
      </trkpt>
      <trkpt lat="49.05282" lon="1.84668">
        <ele>145.3</ele>
        <time>2013-08-20T08:13:53Z</time>
      </trkpt>
      <trkpt lat="49.05283" lon="1.84655">
        <ele>145.3</ele>
        <time>2013-08-20T08:14:00Z</time>
      </trkpt>
      <trkpt lat="49.05289" lon="1.84628">
        <ele>146.26</ele>
        <time>2013-08-20T08:14:17Z</time>
      </trkpt>
      <trkpt lat="49.05289" lon="1.84619">
        <ele>146.26</ele>
        <time>2013-08-20T08:14:22Z</time>
      </trkpt>
      <trkpt lat="49.05288" lon="1.8461">
        <ele>146.74</ele>
        <time>2013-08-20T08:14:28Z</time>
      </trkpt>
      <trkpt lat="49.05289" lon="1.84603">
        <ele>146.74</ele>
        <time>2013-08-20T08:14:33Z</time>
      </trkpt>
      <trkpt lat="49.05302" lon="1.84602">
        <ele>146.74</ele>
        <time>2013-08-20T08:14:49Z</time>
      </trkpt>
      <trkpt lat="49.05314" lon="1.84599">
        <ele>146.26</ele>
        <time>2013-08-20T08:15:03Z</time>
      </trkpt>
      <trkpt lat="49.05335" lon="1.84604">
        <ele>145.78</ele>
        <time>2013-08-20T08:15:19Z</time>
      </trkpt>
      <trkpt lat="49.05342" lon="1.84614">
        <ele>145.3</ele>
        <time>2013-08-20T08:15:35Z</time>
      </trkpt>
      <trkpt lat="49.05357" lon="1.84626">
        <ele>144.34</ele>
        <time>2013-08-20T08:15:54Z</time>
      </trkpt>
      <trkpt lat="49.05371" lon="1.84636">
        <ele>144.34</ele>
        <time>2013-08-20T08:16:08Z</time>
      </trkpt>
      <trkpt lat="49.0539" lon="1.84649">
        <ele>144.82</ele>
        <time>2013-08-20T08:16:24Z</time>
      </trkpt>
      <trkpt lat="49.05406" lon="1.84657">
        <ele>145.78</ele>
        <time>2013-08-20T08:16:39Z</time>
      </trkpt>
      <trkpt lat="49.05424" lon="1.8467">
        <ele>146.26</ele>
        <time>2013-08-20T08:16:55Z</time>
      </trkpt>
      <trkpt lat="49.05442" lon="1.84675">
        <ele>146.74</ele>
        <time>2013-08-20T08:17:10Z</time>
      </trkpt>
      <trkpt lat="49.05462" lon="1.84681">
        <ele>148.18</ele>
        <time>2013-08-20T08:17:25Z</time>
      </trkpt>
      <trkpt lat="49.05477" lon="1.84683">
        <ele>148.66</ele>
        <time>2013-08-20T08:17:37Z</time>
      </trkpt>
      <trkpt lat="49.05483" lon="1.84684">
        <ele>149.62</ele>
        <time>2013-08-20T08:17:42Z</time>
      </trkpt>
      <trkpt lat="49.05502" lon="1.84689">
        <ele>150.1</ele>
        <time>2013-08-20T08:17:59Z</time>
      </trkpt>
      <trkpt lat="49.0551" lon="1.84691">
        <ele>151.06</ele>
        <time>2013-08-20T08:18:07Z</time>
      </trkpt>
      <trkpt lat="49.0553" lon="1.84688">
        <ele>153.95</ele>
        <time>2013-08-20T08:18:25Z</time>
      </trkpt>
      <trkpt lat="49.0555" lon="1.84694">
        <ele>155.39</ele>
        <time>2013-08-20T08:18:40Z</time>
      </trkpt>
      <trkpt lat="49.05568" lon="1.84692">
        <ele>156.35</ele>
        <time>2013-08-20T08:18:57Z</time>
      </trkpt>
      <trkpt lat="49.05581" lon="1.84693">
        <ele>156.35</ele>
        <time>2013-08-20T08:19:14Z</time>
      </trkpt>
      <trkpt lat="49.05594" lon="1.84702">
        <ele>156.83</ele>
        <time>2013-08-20T08:19:32Z</time>
      </trkpt>
      <trkpt lat="49.05601" lon="1.84706">
        <ele>156.35</ele>
        <time>2013-08-20T08:19:37Z</time>
      </trkpt>
      <trkpt lat="49.05625" lon="1.84722">
        <ele>157.31</ele>
        <time>2013-08-20T08:19:58Z</time>
      </trkpt>
      <trkpt lat="49.05637" lon="1.84735">
        <ele>158.27</ele>
        <time>2013-08-20T08:20:10Z</time>
      </trkpt>
      <trkpt lat="49.05654" lon="1.84749">
        <ele>158.75</ele>
        <time>2013-08-20T08:20:28Z</time>
      </trkpt>
      <trkpt lat="49.05671" lon="1.84758">
        <ele>158.75</ele>
        <time>2013-08-20T08:20:45Z</time>
      </trkpt>
      <trkpt lat="49.05691" lon="1.84772">
        <ele>159.72</ele>
        <time>2013-08-20T08:21:01Z</time>
      </trkpt>
      <trkpt lat="49.05691" lon="1.84772">
        <ele>160.2</ele>
        <time>2013-08-20T08:21:02Z</time>
      </trkpt>
      <trkpt lat="49.05695" lon="1.84771">
        <ele>160.2</ele>
        <time>2013-08-20T08:21:05Z</time>
      </trkpt>
      <trkpt lat="49.05707" lon="1.8477">
        <ele>161.16</ele>
        <time>2013-08-20T08:21:14Z</time>
      </trkpt>
      <trkpt lat="49.05724" lon="1.8476">
        <ele>161.16</ele>
        <time>2013-08-20T08:21:29Z</time>
      </trkpt>
      <trkpt lat="49.05752" lon="1.84746">
        <ele>161.16</ele>
        <time>2013-08-20T08:21:45Z</time>
      </trkpt>
      <trkpt lat="49.05779" lon="1.84742">
        <ele>162.12</ele>
        <time>2013-08-20T08:22:00Z</time>
      </trkpt>
      <trkpt lat="49.05809" lon="1.84747">
        <ele>161.16</ele>
        <time>2013-08-20T08:22:18Z</time>
      </trkpt>
      <trkpt lat="49.05839" lon="1.84751">
        <ele>163.08</ele>
        <time>2013-08-20T08:22:37Z</time>
      </trkpt>
      <trkpt lat="49.05858" lon="1.84759">
        <ele>163.56</ele>
        <time>2013-08-20T08:22:53Z</time>
      </trkpt>
      <trkpt lat="49.05866" lon="1.84765">
        <ele>164.04</ele>
        <time>2013-08-20T08:23:01Z</time>
      </trkpt>
      <trkpt lat="49.05875" lon="1.84771">
        <ele>165</ele>
        <time>2013-08-20T08:23:09Z</time>
      </trkpt>
      <trkpt lat="49.05889" lon="1.84782">
        <ele>165.48</ele>
        <time>2013-08-20T08:23:23Z</time>
      </trkpt>
      <trkpt lat="49.0589" lon="1.84783">
        <ele>166.45</ele>
        <time>2013-08-20T08:23:24Z</time>
      </trkpt>
      <trkpt lat="49.05898" lon="1.8479">
        <ele>166.93</ele>
        <time>2013-08-20T08:23:32Z</time>
      </trkpt>
      <trkpt lat="49.05904" lon="1.84796">
        <ele>167.41</ele>
        <time>2013-08-20T08:23:39Z</time>
      </trkpt>
      <trkpt lat="49.05922" lon="1.84806">
        <ele>168.37</ele>
        <time>2013-08-20T08:23:57Z</time>
      </trkpt>
      <trkpt lat="49.05928" lon="1.84811">
        <ele>167.89</ele>
        <time>2013-08-20T08:24:05Z</time>
      </trkpt>
      <trkpt lat="49.05935" lon="1.84815">
        <ele>167.41</ele>
        <time>2013-08-20T08:24:12Z</time>
      </trkpt>
      <trkpt lat="49.05944" lon="1.84818">
        <ele>166.45</ele>
        <time>2013-08-20T08:24:21Z</time>
      </trkpt>
      <trkpt lat="49.05956" lon="1.84826">
        <ele>165.96</ele>
        <time>2013-08-20T08:24:33Z</time>
      </trkpt>
      <trkpt lat="49.05965" lon="1.84833">
        <ele>165.48</ele>
        <time>2013-08-20T08:24:49Z</time>
      </trkpt>
      <trkpt lat="49.05964" lon="1.84837">
        <ele>165.48</ele>
        <time>2013-08-20T08:25:13Z</time>
      </trkpt>
      <trkpt lat="49.05968" lon="1.84839">
        <ele>165</ele>
        <time>2013-08-20T08:25:44Z</time>
      </trkpt>
      <trkpt lat="49.05969" lon="1.84838">
        <ele>165</ele>
        <time>2013-08-20T08:26:15Z</time>
      </trkpt>
      <trkpt lat="49.05968" lon="1.84836">
        <ele>165</ele>
        <time>2013-08-20T08:26:50Z</time>
      </trkpt>
      <trkpt lat="49.05976" lon="1.8484">
        <ele>165</ele>
        <time>2013-08-20T08:27:00Z</time>
      </trkpt>
      <trkpt lat="49.05984" lon="1.84831">
        <ele>166.93</ele>
        <time>2013-08-20T08:27:17Z</time>
      </trkpt>
      <trkpt lat="49.05992" lon="1.84813">
        <ele>167.41</ele>
        <time>2013-08-20T08:27:33Z</time>
      </trkpt>
      <trkpt lat="49.05997" lon="1.84799">
        <ele>168.85</ele>
        <time>2013-08-20T08:27:44Z</time>
      </trkpt>
      <trkpt lat="49.06002" lon="1.84777">
        <ele>169.81</ele>
        <time>2013-08-20T08:27:59Z</time>
      </trkpt>
      <trkpt lat="49.06013" lon="1.84755">
        <ele>171.73</ele>
        <time>2013-08-20T08:28:18Z</time>
      </trkpt>
      <trkpt lat="49.06019" lon="1.84735">
        <ele>172.21</ele>
        <time>2013-08-20T08:28:31Z</time>
      </trkpt>
      <trkpt lat="49.06024" lon="1.8472">
        <ele>172.21</ele>
        <time>2013-08-20T08:28:48Z</time>
      </trkpt>
      <trkpt lat="49.06044" lon="1.84695">
        <ele>171.73</ele>
        <time>2013-08-20T08:29:06Z</time>
      </trkpt>
      <trkpt lat="49.06061" lon="1.84678">
        <ele>171.73</ele>
        <time>2013-08-20T08:29:23Z</time>
      </trkpt>
      <trkpt lat="49.06073" lon="1.84673">
        <ele>171.25</ele>
        <time>2013-08-20T08:29:32Z</time>
      </trkpt>
      <trkpt lat="49.06088" lon="1.84661">
        <ele>171.73</ele>
        <time>2013-08-20T08:29:48Z</time>
      </trkpt>
      <trkpt lat="49.06102" lon="1.84652">
        <ele>171.25</ele>
        <time>2013-08-20T08:30:02Z</time>
      </trkpt>
      <trkpt lat="49.06113" lon="1.84642">
        <ele>171.25</ele>
        <time>2013-08-20T08:30:15Z</time>
      </trkpt>
      <trkpt lat="49.06122" lon="1.84627">
        <ele>170.77</ele>
        <time>2013-08-20T08:30:31Z</time>
      </trkpt>
      <trkpt lat="49.06134" lon="1.8461">
        <ele>169.81</ele>
        <time>2013-08-20T08:30:46Z</time>
      </trkpt>
      <trkpt lat="49.06143" lon="1.84588">
        <ele>168.37</ele>
        <time>2013-08-20T08:31:03Z</time>
      </trkpt>
      <trkpt lat="49.0615" lon="1.84567">
        <ele>167.89</ele>
        <time>2013-08-20T08:31:21Z</time>
      </trkpt>
      <trkpt lat="49.06162" lon="1.84555">
        <ele>168.37</ele>
        <time>2013-08-20T08:31:40Z</time>
      </trkpt>
      <trkpt lat="49.06175" lon="1.84524">
        <ele>168.37</ele>
        <time>2013-08-20T08:31:57Z</time>
      </trkpt>
      <trkpt lat="49.06193" lon="1.84522">
        <ele>168.37</ele>
        <time>2013-08-20T08:32:12Z</time>
      </trkpt>
      <trkpt lat="49.06199" lon="1.84534">
        <ele>169.81</ele>
        <time>2013-08-20T08:32:24Z</time>
      </trkpt>
      <trkpt lat="49.06199" lon="1.84554">
        <ele>169.81</ele>
        <time>2013-08-20T08:32:38Z</time>
      </trkpt>
      <trkpt lat="49.06204" lon="1.84576">
        <ele>171.73</ele>
        <time>2013-08-20T08:32:53Z</time>
      </trkpt>
      <trkpt lat="49.06207" lon="1.84596">
        <ele>173.66</ele>
        <time>2013-08-20T08:33:08Z</time>
      </trkpt>
      <trkpt lat="49.06221" lon="1.84619">
        <ele>175.1</ele>
        <time>2013-08-20T08:33:27Z</time>
      </trkpt>
      <trkpt lat="49.06222" lon="1.84637">
        <ele>176.06</ele>
        <time>2013-08-20T08:33:42Z</time>
      </trkpt>
      <trkpt lat="49.06226" lon="1.84629">
        <ele>176.54</ele>
        <time>2013-08-20T08:33:59Z</time>
      </trkpt>
      <trkpt lat="49.06237" lon="1.84628">
        <ele>178.94</ele>
        <time>2013-08-20T08:34:16Z</time>
      </trkpt>
      <trkpt lat="49.06245" lon="1.84636">
        <ele>178.94</ele>
        <time>2013-08-20T08:34:31Z</time>
      </trkpt>
      <trkpt lat="49.06256" lon="1.84647">
        <ele>180.38</ele>
        <time>2013-08-20T08:34:45Z</time>
      </trkpt>
      <trkpt lat="49.06268" lon="1.84641">
        <ele>181.83</ele>
        <time>2013-08-20T08:34:59Z</time>
      </trkpt>
      <trkpt lat="49.06263" lon="1.8463">
        <ele>184.71</ele>
        <time>2013-08-20T08:35:14Z</time>
      </trkpt>
      <trkpt lat="49.06262" lon="1.84614">
        <ele>187.59</ele>
        <time>2013-08-20T08:35:28Z</time>
      </trkpt>
      <trkpt lat="49.06272" lon="1.84606">
        <ele>190.96</ele>
        <time>2013-08-20T08:35:44Z</time>
      </trkpt>
      <trkpt lat="49.06274" lon="1.84594">
        <ele>192.88</ele>
        <time>2013-08-20T08:35:56Z</time>
      </trkpt>
      <trkpt lat="49.06285" lon="1.84585">
        <ele>194.8</ele>
        <time>2013-08-20T08:36:10Z</time>
      </trkpt>
      <trkpt lat="49.06302" lon="1.84588">
        <ele>198.17</ele>
        <time>2013-08-20T08:36:24Z</time>
      </trkpt>
      <trkpt lat="49.06324" lon="1.8459">
        <ele>199.61</ele>
        <time>2013-08-20T08:36:36Z</time>
      </trkpt>
      <trkpt lat="49.06337" lon="1.84593">
        <ele>201.53</ele>
        <time>2013-08-20T08:36:47Z</time>
      </trkpt>
      <trkpt lat="49.06344" lon="1.84601">
        <ele>202.49</ele>
        <time>2013-08-20T08:37:00Z</time>
      </trkpt>
      <trkpt lat="49.06346" lon="1.84603">
        <ele>200.09</ele>
        <time>2013-08-20T08:37:11Z</time>
      </trkpt>
      <trkpt lat="49.06351" lon="1.84609">
        <ele>201.53</ele>
        <time>2013-08-20T08:37:44Z</time>
      </trkpt>
      <trkpt lat="49.0634" lon="1.84606">
        <ele>202.01</ele>
        <time>2013-08-20T08:38:05Z</time>
      </trkpt>
      <trkpt lat="49.06339" lon="1.84602">
        <ele>202.01</ele>
        <time>2013-08-20T08:38:26Z</time>
      </trkpt>
      <trkpt lat="49.06339" lon="1.84602">
        <ele>202.01</ele>
        <time>2013-08-20T08:38:59Z</time>
      </trkpt>
      <trkpt lat="49.0634" lon="1.84605">
        <ele>201.53</ele>
        <time>2013-08-20T08:39:30Z</time>
      </trkpt>
      <trkpt lat="49.06339" lon="1.84605">
        <ele>201.53</ele>
        <time>2013-08-20T08:39:54Z</time>
      </trkpt>
      <trkpt lat="49.06354" lon="1.8461">
        <ele>202.01</ele>
        <time>2013-08-20T08:40:07Z</time>
      </trkpt>
      <trkpt lat="49.06362" lon="1.8462">
        <ele>203.46</ele>
        <time>2013-08-20T08:40:21Z</time>
      </trkpt>
      <trkpt lat="49.06371" lon="1.84632">
        <ele>204.42</ele>
        <time>2013-08-20T08:40:36Z</time>
      </trkpt>
      <trkpt lat="49.06383" lon="1.84643">
        <ele>205.38</ele>
        <time>2013-08-20T08:40:50Z</time>
      </trkpt>
      <trkpt lat="49.06401" lon="1.84651">
        <ele>205.86</ele>
        <time>2013-08-20T08:41:06Z</time>
      </trkpt>
      <trkpt lat="49.06414" lon="1.84661">
        <ele>205.86</ele>
        <time>2013-08-20T08:41:21Z</time>
      </trkpt>
      <trkpt lat="49.06427" lon="1.84668">
        <ele>205.86</ele>
        <time>2013-08-20T08:41:35Z</time>
      </trkpt>
      <trkpt lat="49.06438" lon="1.84677">
        <ele>204.9</ele>
        <time>2013-08-20T08:41:48Z</time>
      </trkpt>
      <trkpt lat="49.06453" lon="1.84684">
        <ele>205.86</ele>
        <time>2013-08-20T08:42:01Z</time>
      </trkpt>
      <trkpt lat="49.06471" lon="1.84696">
        <ele>205.86</ele>
        <time>2013-08-20T08:42:18Z</time>
      </trkpt>
      <trkpt lat="49.06483" lon="1.84704">
        <ele>206.34</ele>
        <time>2013-08-20T08:42:31Z</time>
      </trkpt>
      <trkpt lat="49.06498" lon="1.84715">
        <ele>205.38</ele>
        <time>2013-08-20T08:42:45Z</time>
      </trkpt>
      <trkpt lat="49.06509" lon="1.84721">
        <ele>205.38</ele>
        <time>2013-08-20T08:42:57Z</time>
      </trkpt>
      <trkpt lat="49.06526" lon="1.84736">
        <ele>205.38</ele>
        <time>2013-08-20T08:43:15Z</time>
      </trkpt>
      <trkpt lat="49.06538" lon="1.84747">
        <ele>205.86</ele>
        <time>2013-08-20T08:43:30Z</time>
      </trkpt>
      <trkpt lat="49.06553" lon="1.84757">
        <ele>205.38</ele>
        <time>2013-08-20T08:43:45Z</time>
      </trkpt>
      <trkpt lat="49.06566" lon="1.84766">
        <ele>204.9</ele>
        <time>2013-08-20T08:43:59Z</time>
      </trkpt>
      <trkpt lat="49.0658" lon="1.84777">
        <ele>204.42</ele>
        <time>2013-08-20T08:44:15Z</time>
      </trkpt>
      <trkpt lat="49.06595" lon="1.84792">
        <ele>204.9</ele>
        <time>2013-08-20T08:44:32Z</time>
      </trkpt>
      <trkpt lat="49.06605" lon="1.84811">
        <ele>205.38</ele>
        <time>2013-08-20T08:44:48Z</time>
      </trkpt>
      <trkpt lat="49.06616" lon="1.84835">
        <ele>206.34</ele>
        <time>2013-08-20T08:45:05Z</time>
      </trkpt>
      <trkpt lat="49.06632" lon="1.84861">
        <ele>206.34</ele>
        <time>2013-08-20T08:45:23Z</time>
      </trkpt>
      <trkpt lat="49.06639" lon="1.84877">
        <ele>206.82</ele>
        <time>2013-08-20T08:45:38Z</time>
      </trkpt>
      <trkpt lat="49.0665" lon="1.84899">
        <ele>206.82</ele>
        <time>2013-08-20T08:45:54Z</time>
      </trkpt>
      <trkpt lat="49.06665" lon="1.84922">
        <ele>207.78</ele>
        <time>2013-08-20T08:46:10Z</time>
      </trkpt>
      <trkpt lat="49.0667" lon="1.84931">
        <ele>207.78</ele>
        <time>2013-08-20T08:46:16Z</time>
      </trkpt>
      <trkpt lat="49.06676" lon="1.84949">
        <ele>208.74</ele>
        <time>2013-08-20T08:46:30Z</time>
      </trkpt>
      <trkpt lat="49.06685" lon="1.84971">
        <ele>209.22</ele>
        <time>2013-08-20T08:46:47Z</time>
      </trkpt>
      <trkpt lat="49.06695" lon="1.84989">
        <ele>209.22</ele>
        <time>2013-08-20T08:47:01Z</time>
      </trkpt>
      <trkpt lat="49.06704" lon="1.85012">
        <ele>209.22</ele>
        <time>2013-08-20T08:47:15Z</time>
      </trkpt>
      <trkpt lat="49.06713" lon="1.85037">
        <ele>208.26</ele>
        <time>2013-08-20T08:47:31Z</time>
      </trkpt>
      <trkpt lat="49.06716" lon="1.85052">
        <ele>206.82</ele>
        <time>2013-08-20T08:47:45Z</time>
      </trkpt>
      <trkpt lat="49.06719" lon="1.85059">
        <ele>207.3</ele>
        <time>2013-08-20T08:47:50Z</time>
      </trkpt>
      <trkpt lat="49.06723" lon="1.85078">
        <ele>205.86</ele>
        <time>2013-08-20T08:48:04Z</time>
      </trkpt>
      <trkpt lat="49.06724" lon="1.85085">
        <ele>205.38</ele>
        <time>2013-08-20T08:48:09Z</time>
      </trkpt>
      <trkpt lat="49.06722" lon="1.85117">
        <ele>205.38</ele>
        <time>2013-08-20T08:48:26Z</time>
      </trkpt>
      <trkpt lat="49.06721" lon="1.85146">
        <ele>205.38</ele>
        <time>2013-08-20T08:48:42Z</time>
      </trkpt>
      <trkpt lat="49.06722" lon="1.85172">
        <ele>203.94</ele>
        <time>2013-08-20T08:48:55Z</time>
      </trkpt>
      <trkpt lat="49.06727" lon="1.85197">
        <ele>202.49</ele>
        <time>2013-08-20T08:49:11Z</time>
      </trkpt>
      <trkpt lat="49.06728" lon="1.85217">
        <ele>201.05</ele>
        <time>2013-08-20T08:49:25Z</time>
      </trkpt>
      <trkpt lat="49.06727" lon="1.8524">
        <ele>198.65</ele>
        <time>2013-08-20T08:49:42Z</time>
      </trkpt>
      <trkpt lat="49.0672" lon="1.85262">
        <ele>198.17</ele>
        <time>2013-08-20T08:49:57Z</time>
      </trkpt>
      <trkpt lat="49.06713" lon="1.85285">
        <ele>197.69</ele>
        <time>2013-08-20T08:50:10Z</time>
      </trkpt>
      <trkpt lat="49.06705" lon="1.85305">
        <ele>196.73</ele>
        <time>2013-08-20T08:50:26Z</time>
      </trkpt>
      <trkpt lat="49.06701" lon="1.85329">
        <ele>194.8</ele>
        <time>2013-08-20T08:50:42Z</time>
      </trkpt>
      <trkpt lat="49.06693" lon="1.85355">
        <ele>192.88</ele>
        <time>2013-08-20T08:51:00Z</time>
      </trkpt>
      <trkpt lat="49.06689" lon="1.85382">
        <ele>190</ele>
        <time>2013-08-20T08:51:16Z</time>
      </trkpt>
      <trkpt lat="49.06681" lon="1.85406">
        <ele>189.04</ele>
        <time>2013-08-20T08:51:30Z</time>
      </trkpt>
      <trkpt lat="49.06676" lon="1.8543">
        <ele>186.63</ele>
        <time>2013-08-20T08:51:48Z</time>
      </trkpt>
      <trkpt lat="49.06672" lon="1.85445">
        <ele>184.23</ele>
        <time>2013-08-20T08:52:05Z</time>
      </trkpt>
      <trkpt lat="49.06665" lon="1.85465">
        <ele>182.79</ele>
        <time>2013-08-20T08:52:22Z</time>
      </trkpt>
      <trkpt lat="49.0666" lon="1.85489">
        <ele>182.31</ele>
        <time>2013-08-20T08:52:36Z</time>
      </trkpt>
      <trkpt lat="49.06669" lon="1.85505">
        <ele>180.87</ele>
        <time>2013-08-20T08:52:56Z</time>
      </trkpt>
      <trkpt lat="49.06681" lon="1.85516">
        <ele>180.87</ele>
        <time>2013-08-20T08:53:11Z</time>
      </trkpt>
      <trkpt lat="49.06695" lon="1.85523">
        <ele>181.35</ele>
        <time>2013-08-20T08:53:24Z</time>
      </trkpt>
      <trkpt lat="49.06711" lon="1.85532">
        <ele>182.31</ele>
        <time>2013-08-20T08:53:39Z</time>
      </trkpt>
      <trkpt lat="49.0673" lon="1.85537">
        <ele>183.75</ele>
        <time>2013-08-20T08:53:55Z</time>
      </trkpt>
      <trkpt lat="49.06762" lon="1.85542">
        <ele>184.71</ele>
        <time>2013-08-20T08:54:11Z</time>
      </trkpt>
      <trkpt lat="49.06779" lon="1.85545">
        <ele>186.63</ele>
        <time>2013-08-20T08:54:26Z</time>
      </trkpt>
      <trkpt lat="49.06798" lon="1.85548">
        <ele>188.56</ele>
        <time>2013-08-20T08:54:41Z</time>
      </trkpt>
      <trkpt lat="49.06806" lon="1.85551">
        <ele>189.04</ele>
        <time>2013-08-20T08:54:55Z</time>
      </trkpt>
      <trkpt lat="49.06804" lon="1.85547">
        <ele>190</ele>
        <time>2013-08-20T08:55:18Z</time>
      </trkpt>
      <trkpt lat="49.06798" lon="1.85549">
        <ele>190.48</ele>
        <time>2013-08-20T08:55:46Z</time>
      </trkpt>
      <trkpt lat="49.06804" lon="1.85552">
        <ele>190.48</ele>
        <time>2013-08-20T08:56:07Z</time>
      </trkpt>
      <trkpt lat="49.06807" lon="1.85555">
        <ele>190.96</ele>
        <time>2013-08-20T08:56:23Z</time>
      </trkpt>
      <trkpt lat="49.06808" lon="1.85552">
        <ele>190.96</ele>
        <time>2013-08-20T08:56:47Z</time>
      </trkpt>
      <trkpt lat="49.06821" lon="1.85564">
        <ele>191.44</ele>
        <time>2013-08-20T08:57:05Z</time>
      </trkpt>
      <trkpt lat="49.06826" lon="1.85569">
        <ele>191.44</ele>
        <time>2013-08-20T08:57:24Z</time>
      </trkpt>
      <trkpt lat="49.06835" lon="1.8556">
        <ele>191.92</ele>
        <time>2013-08-20T08:57:39Z</time>
      </trkpt>
      <trkpt lat="49.06848" lon="1.85556">
        <ele>191.92</ele>
        <time>2013-08-20T08:57:52Z</time>
      </trkpt>
      <trkpt lat="49.06855" lon="1.85559">
        <ele>191.92</ele>
        <time>2013-08-20T08:57:57Z</time>
      </trkpt>
      <trkpt lat="49.06862" lon="1.8557">
        <ele>191.44</ele>
        <time>2013-08-20T08:58:07Z</time>
      </trkpt>
      <trkpt lat="49.06867" lon="1.85602">
        <ele>191.92</ele>
        <time>2013-08-20T08:58:23Z</time>
      </trkpt>
      <trkpt lat="49.0687" lon="1.85629">
        <ele>192.4</ele>
        <time>2013-08-20T08:58:39Z</time>
      </trkpt>
      <trkpt lat="49.06867" lon="1.85652">
        <ele>193.36</ele>
        <time>2013-08-20T08:58:54Z</time>
      </trkpt>
      <trkpt lat="49.06867" lon="1.85658">
        <ele>193.84</ele>
        <time>2013-08-20T08:59:16Z</time>
      </trkpt>
      <trkpt lat="49.06869" lon="1.85674">
        <ele>193.84</ele>
        <time>2013-08-20T08:59:35Z</time>
      </trkpt>
      <trkpt lat="49.06874" lon="1.85694">
        <ele>194.32</ele>
        <time>2013-08-20T08:59:51Z</time>
      </trkpt>
      <trkpt lat="49.06877" lon="1.85705">
        <ele>194.8</ele>
        <time>2013-08-20T09:00:05Z</time>
      </trkpt>
      <trkpt lat="49.06878" lon="1.85714">
        <ele>194.32</ele>
        <time>2013-08-20T09:00:11Z</time>
      </trkpt>
      <trkpt lat="49.06871" lon="1.85719">
        <ele>194.8</ele>
        <time>2013-08-20T09:00:28Z</time>
      </trkpt>
      <trkpt lat="49.06862" lon="1.85721">
        <ele>194.8</ele>
        <time>2013-08-20T09:00:47Z</time>
      </trkpt>
      <trkpt lat="49.06857" lon="1.85727">
        <ele>195.77</ele>
        <time>2013-08-20T09:01:01Z</time>
      </trkpt>
      <trkpt lat="49.06852" lon="1.85729">
        <ele>195.77</ele>
        <time>2013-08-20T09:01:20Z</time>
      </trkpt>
      <trkpt lat="49.06842" lon="1.85741">
        <ele>197.21</ele>
        <time>2013-08-20T09:01:38Z</time>
      </trkpt>
      <trkpt lat="49.06836" lon="1.85753">
        <ele>197.69</ele>
        <time>2013-08-20T09:01:52Z</time>
      </trkpt>
      <trkpt lat="49.06826" lon="1.85756">
        <ele>198.65</ele>
        <time>2013-08-20T09:02:08Z</time>
      </trkpt>
      <trkpt lat="49.06821" lon="1.85759">
        <ele>199.13</ele>
        <time>2013-08-20T09:02:36Z</time>
      </trkpt>
      <trkpt lat="49.06827" lon="1.85767">
        <ele>198.65</ele>
        <time>2013-08-20T09:02:52Z</time>
      </trkpt>
      <trkpt lat="49.0683" lon="1.85771">
        <ele>198.17</ele>
        <time>2013-08-20T09:03:15Z</time>
      </trkpt>
      <trkpt lat="49.06827" lon="1.85779">
        <ele>198.65</ele>
        <time>2013-08-20T09:03:36Z</time>
      </trkpt>
      <trkpt lat="49.06825" lon="1.85795">
        <ele>199.61</ele>
        <time>2013-08-20T09:03:52Z</time>
      </trkpt>
      <trkpt lat="49.06803" lon="1.85812">
        <ele>199.61</ele>
        <time>2013-08-20T09:04:09Z</time>
      </trkpt>
      <trkpt lat="49.06794" lon="1.85824">
        <ele>199.13</ele>
        <time>2013-08-20T09:04:24Z</time>
      </trkpt>
      <trkpt lat="49.06782" lon="1.8584">
        <ele>199.13</ele>
        <time>2013-08-20T09:04:41Z</time>
      </trkpt>
      <trkpt lat="49.06769" lon="1.85865">
        <ele>199.61</ele>
        <time>2013-08-20T09:04:59Z</time>
      </trkpt>
      <trkpt lat="49.06751" lon="1.85874">
        <ele>199.13</ele>
        <time>2013-08-20T09:05:14Z</time>
      </trkpt>
      <trkpt lat="49.06734" lon="1.85893">
        <ele>199.13</ele>
        <time>2013-08-20T09:05:33Z</time>
      </trkpt>
      <trkpt lat="49.06717" lon="1.85907">
        <ele>198.65</ele>
        <time>2013-08-20T09:05:50Z</time>
      </trkpt>
      <trkpt lat="49.06701" lon="1.85921">
        <ele>196.25</ele>
        <time>2013-08-20T09:06:08Z</time>
      </trkpt>
      <trkpt lat="49.06686" lon="1.85936">
        <ele>195.28</ele>
        <time>2013-08-20T09:06:25Z</time>
      </trkpt>
      <trkpt lat="49.06669" lon="1.85953">
        <ele>194.32</ele>
        <time>2013-08-20T09:06:40Z</time>
      </trkpt>
      <trkpt lat="49.06652" lon="1.85972">
        <ele>193.36</ele>
        <time>2013-08-20T09:06:54Z</time>
      </trkpt>
      <trkpt lat="49.06646" lon="1.85969">
        <ele>192.88</ele>
        <time>2013-08-20T09:07:09Z</time>
      </trkpt>
      <trkpt lat="49.06638" lon="1.85946">
        <ele>194.32</ele>
        <time>2013-08-20T09:07:27Z</time>
      </trkpt>
      <trkpt lat="49.06627" lon="1.85927">
        <ele>192.88</ele>
        <time>2013-08-20T09:07:43Z</time>
      </trkpt>
      <trkpt lat="49.06625" lon="1.85915">
        <ele>190</ele>
        <time>2013-08-20T09:07:57Z</time>
      </trkpt>
      <trkpt lat="49.06617" lon="1.85907">
        <ele>186.63</ele>
        <time>2013-08-20T09:08:12Z</time>
      </trkpt>
      <trkpt lat="49.06607" lon="1.85898">
        <ele>184.71</ele>
        <time>2013-08-20T09:08:27Z</time>
      </trkpt>
      <trkpt lat="49.06595" lon="1.85884">
        <ele>181.83</ele>
        <time>2013-08-20T09:08:47Z</time>
      </trkpt>
      <trkpt lat="49.06581" lon="1.85861">
        <ele>179.42</ele>
        <time>2013-08-20T09:09:01Z</time>
      </trkpt>
      <trkpt lat="49.06578" lon="1.85849">
        <ele>178.46</ele>
        <time>2013-08-20T09:09:19Z</time>
      </trkpt>
      <trkpt lat="49.06585" lon="1.85832">
        <ele>177.02</ele>
        <time>2013-08-20T09:09:41Z</time>
      </trkpt>
      <trkpt lat="49.06596" lon="1.85818">
        <ele>177.5</ele>
        <time>2013-08-20T09:09:58Z</time>
      </trkpt>
      <trkpt lat="49.06609" lon="1.85801">
        <ele>177.5</ele>
        <time>2013-08-20T09:10:15Z</time>
      </trkpt>
      <trkpt lat="49.06621" lon="1.85785">
        <ele>177.98</ele>
        <time>2013-08-20T09:10:34Z</time>
      </trkpt>
      <trkpt lat="49.06635" lon="1.8577">
        <ele>179.42</ele>
        <time>2013-08-20T09:10:51Z</time>
      </trkpt>
      <trkpt lat="49.06651" lon="1.85771">
        <ele>181.83</ele>
        <time>2013-08-20T09:11:08Z</time>
      </trkpt>
      <trkpt lat="49.06667" lon="1.85778">
        <ele>184.23</ele>
        <time>2013-08-20T09:11:25Z</time>
      </trkpt>
      <trkpt lat="49.06679" lon="1.85775">
        <ele>185.67</ele>
        <time>2013-08-20T09:11:39Z</time>
      </trkpt>
      <trkpt lat="49.06693" lon="1.85767">
        <ele>185.19</ele>
        <time>2013-08-20T09:11:56Z</time>
      </trkpt>
      <trkpt lat="49.06709" lon="1.8575">
        <ele>185.19</ele>
        <time>2013-08-20T09:12:13Z</time>
      </trkpt>
      <trkpt lat="49.0672" lon="1.8574">
        <ele>184.71</ele>
        <time>2013-08-20T09:12:29Z</time>
      </trkpt>
      <trkpt lat="49.06728" lon="1.85737">
        <ele>185.19</ele>
        <time>2013-08-20T09:12:47Z</time>
      </trkpt>
      <trkpt lat="49.06734" lon="1.85734">
        <ele>185.19</ele>
        <time>2013-08-20T09:13:04Z</time>
      </trkpt>
      <trkpt lat="49.06739" lon="1.85726">
        <ele>184.71</ele>
        <time>2013-08-20T09:13:18Z</time>
      </trkpt>
      <trkpt lat="49.06741" lon="1.85724">
        <ele>184.71</ele>
        <time>2013-08-20T09:13:24Z</time>
      </trkpt>
      <trkpt lat="49.06752" lon="1.85705">
        <ele>184.71</ele>
        <time>2013-08-20T09:13:42Z</time>
      </trkpt>
      <trkpt lat="49.06757" lon="1.85698">
        <ele>185.67</ele>
        <time>2013-08-20T09:13:47Z</time>
      </trkpt>
      <trkpt lat="49.0677" lon="1.85682">
        <ele>186.15</ele>
        <time>2013-08-20T09:14:04Z</time>
      </trkpt>
      <trkpt lat="49.06782" lon="1.8567">
        <ele>187.11</ele>
        <time>2013-08-20T09:14:19Z</time>
      </trkpt>
      <trkpt lat="49.06792" lon="1.85653">
        <ele>188.56</ele>
        <time>2013-08-20T09:14:37Z</time>
      </trkpt>
      <trkpt lat="49.06804" lon="1.85637">
        <ele>189.52</ele>
        <time>2013-08-20T09:14:52Z</time>
      </trkpt>
      <trkpt lat="49.06808" lon="1.85616">
        <ele>188.56</ele>
        <time>2013-08-20T09:15:08Z</time>
      </trkpt>
      <trkpt lat="49.06818" lon="1.85603">
        <ele>188.56</ele>
        <time>2013-08-20T09:15:26Z</time>
      </trkpt>
      <trkpt lat="49.06826" lon="1.85591">
        <ele>189.04</ele>
        <time>2013-08-20T09:15:35Z</time>
      </trkpt>
      <trkpt lat="49.06836" lon="1.85586">
        <ele>189.52</ele>
        <time>2013-08-20T09:15:50Z</time>
      </trkpt>
      <trkpt lat="49.06842" lon="1.85592">
        <ele>189.04</ele>
        <time>2013-08-20T09:16:04Z</time>
      </trkpt>
      <trkpt lat="49.06836" lon="1.85592">
        <ele>190</ele>
        <time>2013-08-20T09:16:33Z</time>
      </trkpt>
      <trkpt lat="49.06839" lon="1.85574">
        <ele>189.52</ele>
        <time>2013-08-20T09:16:48Z</time>
      </trkpt>
      <trkpt lat="49.06842" lon="1.85577">
        <ele>189.52</ele>
        <time>2013-08-20T09:17:13Z</time>
      </trkpt>
      <trkpt lat="49.06847" lon="1.85583">
        <ele>190</ele>
        <time>2013-08-20T09:17:43Z</time>
      </trkpt>
      <trkpt lat="49.06844" lon="1.85581">
        <ele>189.52</ele>
        <time>2013-08-20T09:18:06Z</time>
      </trkpt>
      <trkpt lat="49.06844" lon="1.85565">
        <ele>190.48</ele>
        <time>2013-08-20T09:18:26Z</time>
      </trkpt>
      <trkpt lat="49.06847" lon="1.85546">
        <ele>190.48</ele>
        <time>2013-08-20T09:18:42Z</time>
      </trkpt>
      <trkpt lat="49.06852" lon="1.85527">
        <ele>190.96</ele>
        <time>2013-08-20T09:18:57Z</time>
      </trkpt>
      <trkpt lat="49.06858" lon="1.85497">
        <ele>191.44</ele>
        <time>2013-08-20T09:19:16Z</time>
      </trkpt>
      <trkpt lat="49.0686" lon="1.85474">
        <ele>192.4</ele>
        <time>2013-08-20T09:19:33Z</time>
      </trkpt>
      <trkpt lat="49.06865" lon="1.85441">
        <ele>193.84</ele>
        <time>2013-08-20T09:19:53Z</time>
      </trkpt>
      <trkpt lat="49.06869" lon="1.85411">
        <ele>195.28</ele>
        <time>2013-08-20T09:20:11Z</time>
      </trkpt>
      <trkpt lat="49.06875" lon="1.85383">
        <ele>196.25</ele>
        <time>2013-08-20T09:20:28Z</time>
      </trkpt>
      <trkpt lat="49.06872" lon="1.85363">
        <ele>197.21</ele>
        <time>2013-08-20T09:20:44Z</time>
      </trkpt>
      <trkpt lat="49.06871" lon="1.85353">
        <ele>198.17</ele>
        <time>2013-08-20T09:20:52Z</time>
      </trkpt>
      <trkpt lat="49.0686" lon="1.85332">
        <ele>199.13</ele>
        <time>2013-08-20T09:21:12Z</time>
      </trkpt>
      <trkpt lat="49.0685" lon="1.85315">
        <ele>200.57</ele>
        <time>2013-08-20T09:21:27Z</time>
      </trkpt>
      <trkpt lat="49.06845" lon="1.8529">
        <ele>201.53</ele>
        <time>2013-08-20T09:21:42Z</time>
      </trkpt>
      <trkpt lat="49.0684" lon="1.85265">
        <ele>203.46</ele>
        <time>2013-08-20T09:21:59Z</time>
      </trkpt>
      <trkpt lat="49.06839" lon="1.85243">
        <ele>205.86</ele>
        <time>2013-08-20T09:22:18Z</time>
      </trkpt>
      <trkpt lat="49.06836" lon="1.85225">
        <ele>208.26</ele>
        <time>2013-08-20T09:22:33Z</time>
      </trkpt>
      <trkpt lat="49.06829" lon="1.85205">
        <ele>210.19</ele>
        <time>2013-08-20T09:22:51Z</time>
      </trkpt>
      <trkpt lat="49.06821" lon="1.85183">
        <ele>211.63</ele>
        <time>2013-08-20T09:23:10Z</time>
      </trkpt>
      <trkpt lat="49.06811" lon="1.8516">
        <ele>212.59</ele>
        <time>2013-08-20T09:23:30Z</time>
      </trkpt>
      <trkpt lat="49.06803" lon="1.8514">
        <ele>214.03</ele>
        <time>2013-08-20T09:23:44Z</time>
      </trkpt>
      <trkpt lat="49.06794" lon="1.85126">
        <ele>213.55</ele>
        <time>2013-08-20T09:24:05Z</time>
      </trkpt>
      <trkpt lat="49.0679" lon="1.85107">
        <ele>214.51</ele>
        <time>2013-08-20T09:24:20Z</time>
      </trkpt>
      <trkpt lat="49.0678" lon="1.85078">
        <ele>213.55</ele>
        <time>2013-08-20T09:24:40Z</time>
      </trkpt>
      <trkpt lat="49.06776" lon="1.85054">
        <ele>213.55</ele>
        <time>2013-08-20T09:24:57Z</time>
      </trkpt>
      <trkpt lat="49.06773" lon="1.8503">
        <ele>214.51</ele>
        <time>2013-08-20T09:25:13Z</time>
      </trkpt>
      <trkpt lat="49.06775" lon="1.85002">
        <ele>215.95</ele>
        <time>2013-08-20T09:25:31Z</time>
      </trkpt>
      <trkpt lat="49.06779" lon="1.84969">
        <ele>215.95</ele>
        <time>2013-08-20T09:25:50Z</time>
      </trkpt>
      <trkpt lat="49.06782" lon="1.8494">
        <ele>215.95</ele>
        <time>2013-08-20T09:26:09Z</time>
      </trkpt>
      <trkpt lat="49.06791" lon="1.84913">
        <ele>216.43</ele>
        <time>2013-08-20T09:26:26Z</time>
      </trkpt>
      <trkpt lat="49.06801" lon="1.84886">
        <ele>216.43</ele>
        <time>2013-08-20T09:26:43Z</time>
      </trkpt>
      <trkpt lat="49.06811" lon="1.84856">
        <ele>217.88</ele>
        <time>2013-08-20T09:27:02Z</time>
      </trkpt>
      <trkpt lat="49.06815" lon="1.8485">
        <ele>218.36</ele>
        <time>2013-08-20T09:27:20Z</time>
      </trkpt>
      <trkpt lat="49.06813" lon="1.84837">
        <ele>218.36</ele>
        <time>2013-08-20T09:27:38Z</time>
      </trkpt>
      <trkpt lat="49.06802" lon="1.84829">
        <ele>219.32</ele>
        <time>2013-08-20T09:27:55Z</time>
      </trkpt>
      <trkpt lat="49.06784" lon="1.84819">
        <ele>219.8</ele>
        <time>2013-08-20T09:28:10Z</time>
      </trkpt>
      <trkpt lat="49.06765" lon="1.84803">
        <ele>220.76</ele>
        <time>2013-08-20T09:28:29Z</time>
      </trkpt>
      <trkpt lat="49.06745" lon="1.84795">
        <ele>220.28</ele>
        <time>2013-08-20T09:28:49Z</time>
      </trkpt>
      <trkpt lat="49.0673" lon="1.84784">
        <ele>219.8</ele>
        <time>2013-08-20T09:29:04Z</time>
      </trkpt>
      <trkpt lat="49.06722" lon="1.84778">
        <ele>220.28</ele>
        <time>2013-08-20T09:29:20Z</time>
      </trkpt>
      <trkpt lat="49.06702" lon="1.84771">
        <ele>220.28</ele>
        <time>2013-08-20T09:29:38Z</time>
      </trkpt>
      <trkpt lat="49.06693" lon="1.84764">
        <ele>219.8</ele>
        <time>2013-08-20T09:29:55Z</time>
      </trkpt>
      <trkpt lat="49.06675" lon="1.84752">
        <ele>219.32</ele>
        <time>2013-08-20T09:30:14Z</time>
      </trkpt>
      <trkpt lat="49.06661" lon="1.84743">
        <ele>218.84</ele>
        <time>2013-08-20T09:30:29Z</time>
      </trkpt>
      <trkpt lat="49.06641" lon="1.84728">
        <ele>218.36</ele>
        <time>2013-08-20T09:30:51Z</time>
      </trkpt>
      <trkpt lat="49.06626" lon="1.84721">
        <ele>218.36</ele>
        <time>2013-08-20T09:31:08Z</time>
      </trkpt>
      <trkpt lat="49.0661" lon="1.84709">
        <ele>217.4</ele>
        <time>2013-08-20T09:31:25Z</time>
      </trkpt>
      <trkpt lat="49.06594" lon="1.84698">
        <ele>217.88</ele>
        <time>2013-08-20T09:31:43Z</time>
      </trkpt>
      <trkpt lat="49.0658" lon="1.8469">
        <ele>216.91</ele>
        <time>2013-08-20T09:31:59Z</time>
      </trkpt>
      <trkpt lat="49.06561" lon="1.84677">
        <ele>217.4</ele>
        <time>2013-08-20T09:32:16Z</time>
      </trkpt>
      <trkpt lat="49.0655" lon="1.84671">
        <ele>217.4</ele>
        <time>2013-08-20T09:32:32Z</time>
      </trkpt>
      <trkpt lat="49.06533" lon="1.84658">
        <ele>216.91</ele>
        <time>2013-08-20T09:32:51Z</time>
      </trkpt>
      <trkpt lat="49.06521" lon="1.84654">
        <ele>216.91</ele>
        <time>2013-08-20T09:33:07Z</time>
      </trkpt>
      <trkpt lat="49.06511" lon="1.84648">
        <ele>216.91</ele>
        <time>2013-08-20T09:33:23Z</time>
      </trkpt>
      <trkpt lat="49.06507" lon="1.84638">
        <ele>216.91</ele>
        <time>2013-08-20T09:33:41Z</time>
      </trkpt>
      <trkpt lat="49.06509" lon="1.84629">
        <ele>216.43</ele>
        <time>2013-08-20T09:33:54Z</time>
      </trkpt>
      <trkpt lat="49.06515" lon="1.84603">
        <ele>215.47</ele>
        <time>2013-08-20T09:34:12Z</time>
      </trkpt>
      <trkpt lat="49.06517" lon="1.84597">
        <ele>214.99</ele>
        <time>2013-08-20T09:34:16Z</time>
      </trkpt>
      <trkpt lat="49.06522" lon="1.84568">
        <ele>213.07</ele>
        <time>2013-08-20T09:34:34Z</time>
      </trkpt>
      <trkpt lat="49.06527" lon="1.84547">
        <ele>209.7</ele>
        <time>2013-08-20T09:34:49Z</time>
      </trkpt>
      <trkpt lat="49.0653" lon="1.84532">
        <ele>208.74</ele>
        <time>2013-08-20T09:34:59Z</time>
      </trkpt>
      <trkpt lat="49.06538" lon="1.84504">
        <ele>207.3</ele>
        <time>2013-08-20T09:35:16Z</time>
      </trkpt>
      <trkpt lat="49.06544" lon="1.8448">
        <ele>203.94</ele>
        <time>2013-08-20T09:35:33Z</time>
      </trkpt>
      <trkpt lat="49.06548" lon="1.84457">
        <ele>201.53</ele>
        <time>2013-08-20T09:35:49Z</time>
      </trkpt>
      <trkpt lat="49.06556" lon="1.84436">
        <ele>199.13</ele>
        <time>2013-08-20T09:36:05Z</time>
      </trkpt>
      <trkpt lat="49.06559" lon="1.84415">
        <ele>196.25</ele>
        <time>2013-08-20T09:36:21Z</time>
      </trkpt>
      <trkpt lat="49.06565" lon="1.84391">
        <ele>193.36</ele>
        <time>2013-08-20T09:36:37Z</time>
      </trkpt>
      <trkpt lat="49.06569" lon="1.84368">
        <ele>191.44</ele>
        <time>2013-08-20T09:36:54Z</time>
      </trkpt>
      <trkpt lat="49.06575" lon="1.84349">
        <ele>188.56</ele>
        <time>2013-08-20T09:37:08Z</time>
      </trkpt>
      <trkpt lat="49.06579" lon="1.84331">
        <ele>185.67</ele>
        <time>2013-08-20T09:37:24Z</time>
      </trkpt>
      <trkpt lat="49.06588" lon="1.84304">
        <ele>183.75</ele>
        <time>2013-08-20T09:37:41Z</time>
      </trkpt>
      <trkpt lat="49.06605" lon="1.84273">
        <ele>182.31</ele>
        <time>2013-08-20T09:37:54Z</time>
      </trkpt>
      <trkpt lat="49.06618" lon="1.84247">
        <ele>180.87</ele>
        <time>2013-08-20T09:38:13Z</time>
      </trkpt>
      <trkpt lat="49.06627" lon="1.84222">
        <ele>178.46</ele>
        <time>2013-08-20T09:38:30Z</time>
      </trkpt>
      <trkpt lat="49.06639" lon="1.84198">
        <ele>177.5</ele>
        <time>2013-08-20T09:38:48Z</time>
      </trkpt>
      <trkpt lat="49.06652" lon="1.84169">
        <ele>177.5</ele>
        <time>2013-08-20T09:39:04Z</time>
      </trkpt>
      <trkpt lat="49.06662" lon="1.84146">
        <ele>177.98</ele>
        <time>2013-08-20T09:39:22Z</time>
      </trkpt>
      <trkpt lat="49.06673" lon="1.84116">
        <ele>177.98</ele>
        <time>2013-08-20T09:39:40Z</time>
      </trkpt>
      <trkpt lat="49.06686" lon="1.84092">
        <ele>178.46</ele>
        <time>2013-08-20T09:39:56Z</time>
      </trkpt>
      <trkpt lat="49.06698" lon="1.84062">
        <ele>177.5</ele>
        <time>2013-08-20T09:40:15Z</time>
      </trkpt>
      <trkpt lat="49.06701" lon="1.84049">
        <ele>177.5</ele>
        <time>2013-08-20T09:40:23Z</time>
      </trkpt>
      <trkpt lat="49.06708" lon="1.84021">
        <ele>179.42</ele>
        <time>2013-08-20T09:40:41Z</time>
      </trkpt>
      <trkpt lat="49.06712" lon="1.83995">
        <ele>180.87</ele>
        <time>2013-08-20T09:40:56Z</time>
      </trkpt>
      <trkpt lat="49.06718" lon="1.83987">
        <ele>181.83</ele>
        <time>2013-08-20T09:41:06Z</time>
      </trkpt>
      <trkpt lat="49.06729" lon="1.83984">
        <ele>184.23</ele>
        <time>2013-08-20T09:41:21Z</time>
      </trkpt>
      <trkpt lat="49.06732" lon="1.83984">
        <ele>175.1</ele>
        <time>2013-08-20T09:41:26Z</time>
      </trkpt>
      <trkpt lat="49.06732" lon="1.83984">
        <ele>190.48</ele>
        <time>2013-08-20T09:41:27Z</time>
      </trkpt>
      <trkpt lat="49.06732" lon="1.83984">
        <ele>185.67</ele>
        <time>2013-08-20T09:41:28Z</time>
      </trkpt>
      <trkpt lat="49.06745" lon="1.83981">
        <ele>189.04</ele>
        <time>2013-08-20T09:41:43Z</time>
      </trkpt>
      <trkpt lat="49.06745" lon="1.83978">
        <ele>182.31</ele>
        <time>2013-08-20T09:41:54Z</time>
      </trkpt>
      <trkpt lat="49.06745" lon="1.83977">
        <ele>189.52</ele>
        <time>2013-08-20T09:41:55Z</time>
      </trkpt>
      <trkpt lat="49.06745" lon="1.83977">
        <ele>188.56</ele>
        <time>2013-08-20T09:41:56Z</time>
      </trkpt>
      <trkpt lat="49.06746" lon="1.83977">
        <ele>187.11</ele>
        <time>2013-08-20T09:41:58Z</time>
      </trkpt>
      <trkpt lat="49.06757" lon="1.83977">
        <ele>188.56</ele>
        <time>2013-08-20T09:42:13Z</time>
      </trkpt>
      <trkpt lat="49.06766" lon="1.83975">
        <ele>191.44</ele>
        <time>2013-08-20T09:42:27Z</time>
      </trkpt>
      <trkpt lat="49.06776" lon="1.83974">
        <ele>193.36</ele>
        <time>2013-08-20T09:42:37Z</time>
      </trkpt>
      <trkpt lat="49.06784" lon="1.83971">
        <ele>194.8</ele>
        <time>2013-08-20T09:42:48Z</time>
      </trkpt>
      <trkpt lat="49.06796" lon="1.83966">
        <ele>196.25</ele>
        <time>2013-08-20T09:43:04Z</time>
      </trkpt>
      <trkpt lat="49.06806" lon="1.83967">
        <ele>197.69</ele>
        <time>2013-08-20T09:43:18Z</time>
      </trkpt>
      <trkpt lat="49.06817" lon="1.83966">
        <ele>198.17</ele>
        <time>2013-08-20T09:43:32Z</time>
      </trkpt>
      <trkpt lat="49.06827" lon="1.83965">
        <ele>200.09</ele>
        <time>2013-08-20T09:43:47Z</time>
      </trkpt>
      <trkpt lat="49.06835" lon="1.83965">
        <ele>201.53</ele>
        <time>2013-08-20T09:44:01Z</time>
      </trkpt>
      <trkpt lat="49.06841" lon="1.83966">
        <ele>203.46</ele>
        <time>2013-08-20T09:44:14Z</time>
      </trkpt>
      <trkpt lat="49.0685" lon="1.83959">
        <ele>205.86</ele>
        <time>2013-08-20T09:44:28Z</time>
      </trkpt>
      <trkpt lat="49.06859" lon="1.8396">
        <ele>208.26</ele>
        <time>2013-08-20T09:44:41Z</time>
      </trkpt>
      <trkpt lat="49.0687" lon="1.83953">
        <ele>211.15</ele>
        <time>2013-08-20T09:44:57Z</time>
      </trkpt>
      <trkpt lat="49.06884" lon="1.83944">
        <ele>213.07</ele>
        <time>2013-08-20T09:45:13Z</time>
      </trkpt>
      <trkpt lat="49.06895" lon="1.8394">
        <ele>214.51</ele>
        <time>2013-08-20T09:45:29Z</time>
      </trkpt>
      <trkpt lat="49.06899" lon="1.83933">
        <ele>215.47</ele>
        <time>2013-08-20T09:45:36Z</time>
      </trkpt>
      <trkpt lat="49.06911" lon="1.83919">
        <ele>216.43</ele>
        <time>2013-08-20T09:45:53Z</time>
      </trkpt>
      <trkpt lat="49.06922" lon="1.83907">
        <ele>217.4</ele>
        <time>2013-08-20T09:46:08Z</time>
      </trkpt>
      <trkpt lat="49.06932" lon="1.83896">
        <ele>216.43</ele>
        <time>2013-08-20T09:46:20Z</time>
      </trkpt>
      <trkpt lat="49.06934" lon="1.83894">
        <ele>217.4</ele>
        <time>2013-08-20T09:46:23Z</time>
      </trkpt>
      <trkpt lat="49.06939" lon="1.8389">
        <ele>216.91</ele>
        <time>2013-08-20T09:46:29Z</time>
      </trkpt>
      <trkpt lat="49.06951" lon="1.83885">
        <ele>217.4</ele>
        <time>2013-08-20T09:46:42Z</time>
      </trkpt>
      <trkpt lat="49.06963" lon="1.8389">
        <ele>217.88</ele>
        <time>2013-08-20T09:46:57Z</time>
      </trkpt>
      <trkpt lat="49.06971" lon="1.83887">
        <ele>218.36</ele>
        <time>2013-08-20T09:47:14Z</time>
      </trkpt>
      <trkpt lat="49.06971" lon="1.83893">
        <ele>218.36</ele>
        <time>2013-08-20T09:47:32Z</time>
      </trkpt>
      <trkpt lat="49.06978" lon="1.83918">
        <ele>218.84</ele>
        <time>2013-08-20T09:48:03Z</time>
      </trkpt>
      <trkpt lat="49.06972" lon="1.83916">
        <ele>218.36</ele>
        <time>2013-08-20T09:48:25Z</time>
      </trkpt>
      <trkpt lat="49.06968" lon="1.83919">
        <ele>217.88</ele>
        <time>2013-08-20T09:48:48Z</time>
      </trkpt>
      <trkpt lat="49.06968" lon="1.83926">
        <ele>219.32</ele>
        <time>2013-08-20T09:49:02Z</time>
      </trkpt>
      <trkpt lat="49.0697" lon="1.83919">
        <ele>219.8</ele>
        <time>2013-08-20T09:49:15Z</time>
      </trkpt>
      <trkpt lat="49.06974" lon="1.83922">
        <ele>219.32</ele>
        <time>2013-08-20T09:49:34Z</time>
      </trkpt>
      <trkpt lat="49.06968" lon="1.8392">
        <ele>219.8</ele>
        <time>2013-08-20T09:49:52Z</time>
      </trkpt>
      <trkpt lat="49.0697" lon="1.83927">
        <ele>219.8</ele>
        <time>2013-08-20T09:50:06Z</time>
      </trkpt>
      <trkpt lat="49.06972" lon="1.8393">
        <ele>219.8</ele>
        <time>2013-08-20T09:50:28Z</time>
      </trkpt>
      <trkpt lat="49.06966" lon="1.83931">
        <ele>219.32</ele>
        <time>2013-08-20T09:50:58Z</time>
      </trkpt>
      <trkpt lat="49.06969" lon="1.8393">
        <ele>220.28</ele>
        <time>2013-08-20T09:51:21Z</time>
      </trkpt>
      <trkpt lat="49.06969" lon="1.83927">
        <ele>214.51</ele>
        <time>2013-08-20T09:51:26Z</time>
      </trkpt>
      <trkpt lat="49.06968" lon="1.83927">
        <ele>221.24</ele>
        <time>2013-08-20T09:51:27Z</time>
      </trkpt>
      <trkpt lat="49.06971" lon="1.83948">
        <ele>219.32</ele>
        <time>2013-08-20T09:51:44Z</time>
      </trkpt>
      <trkpt lat="49.06968" lon="1.83966">
        <ele>219.8</ele>
        <time>2013-08-20T09:52:02Z</time>
      </trkpt>
      <trkpt lat="49.06962" lon="1.8398">
        <ele>217.4</ele>
        <time>2013-08-20T09:52:19Z</time>
      </trkpt>
      <trkpt lat="49.06959" lon="1.83991">
        <ele>214.51</ele>
        <time>2013-08-20T09:52:31Z</time>
      </trkpt>
      <trkpt lat="49.06952" lon="1.84007">
        <ele>212.59</ele>
        <time>2013-08-20T09:52:46Z</time>
      </trkpt>
      <trkpt lat="49.06944" lon="1.84022">
        <ele>210.67</ele>
        <time>2013-08-20T09:52:57Z</time>
      </trkpt>
      <trkpt lat="49.06934" lon="1.84039">
        <ele>209.22</ele>
        <time>2013-08-20T09:53:11Z</time>
      </trkpt>
      <trkpt lat="49.06925" lon="1.84059">
        <ele>208.74</ele>
        <time>2013-08-20T09:53:27Z</time>
      </trkpt>
      <trkpt lat="49.06919" lon="1.84076">
        <ele>207.78</ele>
        <time>2013-08-20T09:53:38Z</time>
      </trkpt>
      <trkpt lat="49.06914" lon="1.84094">
        <ele>207.3</ele>
        <time>2013-08-20T09:53:49Z</time>
      </trkpt>
      <trkpt lat="49.06909" lon="1.84117">
        <ele>206.82</ele>
        <time>2013-08-20T09:54:03Z</time>
      </trkpt>
      <trkpt lat="49.06901" lon="1.84134">
        <ele>205.38</ele>
        <time>2013-08-20T09:54:16Z</time>
      </trkpt>
      <trkpt lat="49.06893" lon="1.84152">
        <ele>203.94</ele>
        <time>2013-08-20T09:54:31Z</time>
      </trkpt>
      <trkpt lat="49.06879" lon="1.84171">
        <ele>203.46</ele>
        <time>2013-08-20T09:54:45Z</time>
      </trkpt>
      <trkpt lat="49.06868" lon="1.84177">
        <ele>202.98</ele>
        <time>2013-08-20T09:54:56Z</time>
      </trkpt>
      <trkpt lat="49.06859" lon="1.84193">
        <ele>200.57</ele>
        <time>2013-08-20T09:55:10Z</time>
      </trkpt>
      <trkpt lat="49.06847" lon="1.84201">
        <ele>199.61</ele>
        <time>2013-08-20T09:55:22Z</time>
      </trkpt>
      <trkpt lat="49.06835" lon="1.84207">
        <ele>197.69</ele>
        <time>2013-08-20T09:55:35Z</time>
      </trkpt>
      <trkpt lat="49.0683" lon="1.84209">
        <ele>197.21</ele>
        <time>2013-08-20T09:55:46Z</time>
      </trkpt>
      <trkpt lat="49.06815" lon="1.84215">
        <ele>196.25</ele>
        <time>2013-08-20T09:55:58Z</time>
      </trkpt>
      <trkpt lat="49.06804" lon="1.84217">
        <ele>195.28</ele>
        <time>2013-08-20T09:56:10Z</time>
      </trkpt>
      <trkpt lat="49.06791" lon="1.84219">
        <ele>193.36</ele>
        <time>2013-08-20T09:56:22Z</time>
      </trkpt>
      <trkpt lat="49.06781" lon="1.84219">
        <ele>191.92</ele>
        <time>2013-08-20T09:56:34Z</time>
      </trkpt>
      <trkpt lat="49.0677" lon="1.84218">
        <ele>190.96</ele>
        <time>2013-08-20T09:56:47Z</time>
      </trkpt>
      <trkpt lat="49.06761" lon="1.8422">
        <ele>190.48</ele>
        <time>2013-08-20T09:56:55Z</time>
      </trkpt>
      <trkpt lat="49.06746" lon="1.84221">
        <ele>189.04</ele>
        <time>2013-08-20T09:57:08Z</time>
      </trkpt>
      <trkpt lat="49.06734" lon="1.84224">
        <ele>187.59</ele>
        <time>2013-08-20T09:57:22Z</time>
      </trkpt>
      <trkpt lat="49.06726" lon="1.84226">
        <ele>187.11</ele>
        <time>2013-08-20T09:57:34Z</time>
      </trkpt>
      <trkpt lat="49.06715" lon="1.84229">
        <ele>186.63</ele>
        <time>2013-08-20T09:57:48Z</time>
      </trkpt>
      <trkpt lat="49.06702" lon="1.84239">
        <ele>185.19</ele>
        <time>2013-08-20T09:58:02Z</time>
      </trkpt>
      <trkpt lat="49.067" lon="1.8424">
        <ele>185.19</ele>
        <time>2013-08-20T09:58:03Z</time>
      </trkpt>
      <trkpt lat="49.0668" lon="1.8425">
        <ele>185.19</ele>
        <time>2013-08-20T09:58:19Z</time>
      </trkpt>
      <trkpt lat="49.0667" lon="1.84255">
        <ele>184.71</ele>
        <time>2013-08-20T09:58:31Z</time>
      </trkpt>
      <trkpt lat="49.06653" lon="1.8426">
        <ele>184.23</ele>
        <time>2013-08-20T09:58:46Z</time>
      </trkpt>
      <trkpt lat="49.06644" lon="1.84265">
        <ele>184.23</ele>
        <time>2013-08-20T09:58:58Z</time>
      </trkpt>
      <trkpt lat="49.0663" lon="1.84268">
        <ele>183.75</ele>
        <time>2013-08-20T09:59:06Z</time>
      </trkpt>
      <trkpt lat="49.06607" lon="1.84277">
        <ele>184.23</ele>
        <time>2013-08-20T09:59:20Z</time>
      </trkpt>
      <trkpt lat="49.06599" lon="1.84283">
        <ele>184.23</ele>
        <time>2013-08-20T09:59:27Z</time>
      </trkpt>
      <trkpt lat="49.06585" lon="1.84282">
        <ele>184.71</ele>
        <time>2013-08-20T09:59:40Z</time>
      </trkpt>
      <trkpt lat="49.06573" lon="1.84282">
        <ele>185.19</ele>
        <time>2013-08-20T09:59:52Z</time>
      </trkpt>
      <trkpt lat="49.0656" lon="1.84288">
        <ele>186.63</ele>
        <time>2013-08-20T10:00:07Z</time>
      </trkpt>
      <trkpt lat="49.06549" lon="1.84296">
        <ele>186.63</ele>
        <time>2013-08-20T10:00:21Z</time>
      </trkpt>
      <trkpt lat="49.06533" lon="1.84295">
        <ele>186.15</ele>
        <time>2013-08-20T10:00:32Z</time>
      </trkpt>
      <trkpt lat="49.06519" lon="1.84305">
        <ele>186.15</ele>
        <time>2013-08-20T10:00:46Z</time>
      </trkpt>
      <trkpt lat="49.06513" lon="1.84311">
        <ele>186.15</ele>
        <time>2013-08-20T10:00:59Z</time>
      </trkpt>
      <trkpt lat="49.06498" lon="1.84315">
        <ele>186.63</ele>
        <time>2013-08-20T10:01:10Z</time>
      </trkpt>
      <trkpt lat="49.06484" lon="1.84318">
        <ele>188.08</ele>
        <time>2013-08-20T10:01:23Z</time>
      </trkpt>
      <trkpt lat="49.06466" lon="1.84317">
        <ele>188.56</ele>
        <time>2013-08-20T10:01:35Z</time>
      </trkpt>
      <trkpt lat="49.06463" lon="1.84319">
        <ele>188.56</ele>
        <time>2013-08-20T10:01:40Z</time>
      </trkpt>
      <trkpt lat="49.06449" lon="1.84323">
        <ele>189.04</ele>
        <time>2013-08-20T10:01:53Z</time>
      </trkpt>
      <trkpt lat="49.06431" lon="1.84325">
        <ele>187.11</ele>
        <time>2013-08-20T10:02:05Z</time>
      </trkpt>
      <trkpt lat="49.06421" lon="1.8433">
        <ele>185.67</ele>
        <time>2013-08-20T10:02:18Z</time>
      </trkpt>
      <trkpt lat="49.06403" lon="1.84332">
        <ele>184.23</ele>
        <time>2013-08-20T10:02:30Z</time>
      </trkpt>
      <trkpt lat="49.06395" lon="1.84339">
        <ele>183.27</ele>
        <time>2013-08-20T10:02:37Z</time>
      </trkpt>
      <trkpt lat="49.06382" lon="1.84345">
        <ele>182.79</ele>
        <time>2013-08-20T10:02:49Z</time>
      </trkpt>
      <trkpt lat="49.0637" lon="1.84353">
        <ele>182.31</ele>
        <time>2013-08-20T10:03:01Z</time>
      </trkpt>
      <trkpt lat="49.06365" lon="1.84357">
        <ele>181.35</ele>
        <time>2013-08-20T10:03:12Z</time>
      </trkpt>
      <trkpt lat="49.06358" lon="1.84362">
        <ele>181.35</ele>
        <time>2013-08-20T10:03:19Z</time>
      </trkpt>
      <trkpt lat="49.06353" lon="1.84367">
        <ele>180.87</ele>
        <time>2013-08-20T10:03:24Z</time>
      </trkpt>
      <trkpt lat="49.06341" lon="1.84377">
        <ele>180.87</ele>
        <time>2013-08-20T10:03:38Z</time>
      </trkpt>
      <trkpt lat="49.0633" lon="1.84393">
        <ele>180.87</ele>
        <time>2013-08-20T10:03:51Z</time>
      </trkpt>
      <trkpt lat="49.06327" lon="1.84397">
        <ele>179.9</ele>
        <time>2013-08-20T10:03:55Z</time>
      </trkpt>
      <trkpt lat="49.06317" lon="1.84405">
        <ele>180.38</ele>
        <time>2013-08-20T10:04:07Z</time>
      </trkpt>
      <trkpt lat="49.06308" lon="1.84411">
        <ele>180.38</ele>
        <time>2013-08-20T10:04:20Z</time>
      </trkpt>
      <trkpt lat="49.06299" lon="1.8442">
        <ele>180.87</ele>
        <time>2013-08-20T10:04:31Z</time>
      </trkpt>
      <trkpt lat="49.06289" lon="1.84436">
        <ele>180.87</ele>
        <time>2013-08-20T10:04:44Z</time>
      </trkpt>
      <trkpt lat="49.06278" lon="1.84443">
        <ele>180.87</ele>
        <time>2013-08-20T10:04:54Z</time>
      </trkpt>
      <trkpt lat="49.06276" lon="1.84444">
        <ele>181.35</ele>
        <time>2013-08-20T10:04:55Z</time>
      </trkpt>
      <trkpt lat="49.0626" lon="1.84445">
        <ele>181.35</ele>
        <time>2013-08-20T10:05:08Z</time>
      </trkpt>
      <trkpt lat="49.06256" lon="1.84448">
        <ele>180.87</ele>
        <time>2013-08-20T10:05:13Z</time>
      </trkpt>
      <trkpt lat="49.06241" lon="1.8446">
        <ele>181.83</ele>
        <time>2013-08-20T10:05:28Z</time>
      </trkpt>
      <trkpt lat="49.06232" lon="1.84463">
        <ele>181.35</ele>
        <time>2013-08-20T10:05:40Z</time>
      </trkpt>
      <trkpt lat="49.06221" lon="1.84482">
        <ele>181.83</ele>
        <time>2013-08-20T10:05:54Z</time>
      </trkpt>
      <trkpt lat="49.06206" lon="1.84498">
        <ele>182.79</ele>
        <time>2013-08-20T10:06:09Z</time>
      </trkpt>
      <trkpt lat="49.06196" lon="1.84508">
        <ele>183.27</ele>
        <time>2013-08-20T10:06:20Z</time>
      </trkpt>
      <trkpt lat="49.06191" lon="1.84515">
        <ele>183.75</ele>
        <time>2013-08-20T10:06:28Z</time>
      </trkpt>
      <trkpt lat="49.06172" lon="1.84521">
        <ele>184.71</ele>
        <time>2013-08-20T10:06:41Z</time>
      </trkpt>
      <trkpt lat="49.06163" lon="1.8453">
        <ele>185.67</ele>
        <time>2013-08-20T10:06:52Z</time>
      </trkpt>
      <trkpt lat="49.06154" lon="1.84543">
        <ele>186.15</ele>
        <time>2013-08-20T10:07:05Z</time>
      </trkpt>
      <trkpt lat="49.06145" lon="1.8455">
        <ele>186.63</ele>
        <time>2013-08-20T10:07:20Z</time>
      </trkpt>
      <trkpt lat="49.06138" lon="1.84565">
        <ele>188.08</ele>
        <time>2013-08-20T10:07:34Z</time>
      </trkpt>
      <trkpt lat="49.06133" lon="1.84578">
        <ele>189.52</ele>
        <time>2013-08-20T10:07:47Z</time>
      </trkpt>
      <trkpt lat="49.06125" lon="1.8459">
        <ele>190.48</ele>
        <time>2013-08-20T10:07:59Z</time>
      </trkpt>
      <trkpt lat="49.06119" lon="1.84605">
        <ele>191.44</ele>
        <time>2013-08-20T10:08:11Z</time>
      </trkpt>
      <trkpt lat="49.0611" lon="1.84621">
        <ele>190.48</ele>
        <time>2013-08-20T10:08:24Z</time>
      </trkpt>
      <trkpt lat="49.061" lon="1.84638">
        <ele>189.52</ele>
        <time>2013-08-20T10:08:38Z</time>
      </trkpt>
      <trkpt lat="49.06092" lon="1.84651">
        <ele>189.04</ele>
        <time>2013-08-20T10:08:52Z</time>
      </trkpt>
      <trkpt lat="49.0608" lon="1.84668">
        <ele>190</ele>
        <time>2013-08-20T10:09:06Z</time>
      </trkpt>
      <trkpt lat="49.06065" lon="1.8467">
        <ele>191.44</ele>
        <time>2013-08-20T10:09:18Z</time>
      </trkpt>
      <trkpt lat="49.06056" lon="1.84677">
        <ele>191.44</ele>
        <time>2013-08-20T10:09:30Z</time>
      </trkpt>
      <trkpt lat="49.06045" lon="1.84684">
        <ele>191.44</ele>
        <time>2013-08-20T10:09:43Z</time>
      </trkpt>
      <trkpt lat="49.06033" lon="1.84685">
        <ele>193.36</ele>
        <time>2013-08-20T10:09:57Z</time>
      </trkpt>
      <trkpt lat="49.06014" lon="1.84682">
        <ele>194.32</ele>
        <time>2013-08-20T10:10:10Z</time>
      </trkpt>
      <trkpt lat="49.06003" lon="1.84679">
        <ele>194.8</ele>
        <time>2013-08-20T10:10:21Z</time>
      </trkpt>
      <trkpt lat="49.05982" lon="1.84676">
        <ele>196.25</ele>
        <time>2013-08-20T10:10:34Z</time>
      </trkpt>
      <trkpt lat="49.05963" lon="1.84672">
        <ele>198.17</ele>
        <time>2013-08-20T10:10:47Z</time>
      </trkpt>
      <trkpt lat="49.0595" lon="1.84666">
        <ele>198.17</ele>
        <time>2013-08-20T10:11:03Z</time>
      </trkpt>
      <trkpt lat="49.0594" lon="1.84652">
        <ele>199.61</ele>
        <time>2013-08-20T10:11:18Z</time>
      </trkpt>
      <trkpt lat="49.05932" lon="1.84639">
        <ele>200.57</ele>
        <time>2013-08-20T10:11:33Z</time>
      </trkpt>
      <trkpt lat="49.05921" lon="1.84627">
        <ele>201.53</ele>
        <time>2013-08-20T10:11:45Z</time>
      </trkpt>
      <trkpt lat="49.05909" lon="1.84617">
        <ele>202.01</ele>
        <time>2013-08-20T10:11:55Z</time>
      </trkpt>
      <trkpt lat="49.0589" lon="1.84596">
        <ele>203.46</ele>
        <time>2013-08-20T10:12:10Z</time>
      </trkpt>
      <trkpt lat="49.0588" lon="1.84584">
        <ele>204.9</ele>
        <time>2013-08-20T10:12:22Z</time>
      </trkpt>
      <trkpt lat="49.05872" lon="1.84569">
        <ele>206.82</ele>
        <time>2013-08-20T10:12:34Z</time>
      </trkpt>
      <trkpt lat="49.05862" lon="1.84552">
        <ele>208.26</ele>
        <time>2013-08-20T10:12:47Z</time>
      </trkpt>
      <trkpt lat="49.05853" lon="1.84538">
        <ele>209.7</ele>
        <time>2013-08-20T10:13:00Z</time>
      </trkpt>
      <trkpt lat="49.05847" lon="1.84524">
        <ele>211.15</ele>
        <time>2013-08-20T10:13:11Z</time>
      </trkpt>
      <trkpt lat="49.05836" lon="1.84509">
        <ele>212.11</ele>
        <time>2013-08-20T10:13:25Z</time>
      </trkpt>
      <trkpt lat="49.0583" lon="1.84498">
        <ele>213.07</ele>
        <time>2013-08-20T10:13:38Z</time>
      </trkpt>
      <trkpt lat="49.05815" lon="1.84485">
        <ele>213.55</ele>
        <time>2013-08-20T10:13:53Z</time>
      </trkpt>
      <trkpt lat="49.05799" lon="1.84472">
        <ele>213.55</ele>
        <time>2013-08-20T10:14:09Z</time>
      </trkpt>
      <trkpt lat="49.05795" lon="1.8447">
        <ele>213.07</ele>
        <time>2013-08-20T10:14:13Z</time>
      </trkpt>
      <trkpt lat="49.05783" lon="1.84459">
        <ele>213.07</ele>
        <time>2013-08-20T10:14:27Z</time>
      </trkpt>
      <trkpt lat="49.05781" lon="1.84456">
        <ele>213.55</ele>
        <time>2013-08-20T10:14:32Z</time>
      </trkpt>
      <trkpt lat="49.05775" lon="1.8445">
        <ele>213.55</ele>
        <time>2013-08-20T10:14:36Z</time>
      </trkpt>
      <trkpt lat="49.05761" lon="1.84445">
        <ele>213.07</ele>
        <time>2013-08-20T10:14:49Z</time>
      </trkpt>
      <trkpt lat="49.05739" lon="1.84431">
        <ele>213.55</ele>
        <time>2013-08-20T10:15:02Z</time>
      </trkpt>
      <trkpt lat="49.05727" lon="1.84421">
        <ele>213.55</ele>
        <time>2013-08-20T10:15:14Z</time>
      </trkpt>
      <trkpt lat="49.05713" lon="1.84414">
        <ele>213.55</ele>
        <time>2013-08-20T10:15:26Z</time>
      </trkpt>
      <trkpt lat="49.05706" lon="1.84406">
        <ele>213.55</ele>
        <time>2013-08-20T10:15:40Z</time>
      </trkpt>
      <trkpt lat="49.05689" lon="1.84399">
        <ele>214.03</ele>
        <time>2013-08-20T10:15:53Z</time>
      </trkpt>
      <trkpt lat="49.05668" lon="1.84388">
        <ele>213.07</ele>
        <time>2013-08-20T10:16:08Z</time>
      </trkpt>
      <trkpt lat="49.05656" lon="1.84376">
        <ele>212.59</ele>
        <time>2013-08-20T10:16:21Z</time>
      </trkpt>
      <trkpt lat="49.05652" lon="1.84375">
        <ele>212.11</ele>
        <time>2013-08-20T10:16:27Z</time>
      </trkpt>
      <trkpt lat="49.05637" lon="1.84367">
        <ele>211.63</ele>
        <time>2013-08-20T10:16:39Z</time>
      </trkpt>
      <trkpt lat="49.05619" lon="1.84355">
        <ele>210.67</ele>
        <time>2013-08-20T10:16:53Z</time>
      </trkpt>
      <trkpt lat="49.05605" lon="1.84341">
        <ele>211.15</ele>
        <time>2013-08-20T10:17:06Z</time>
      </trkpt>
      <trkpt lat="49.05593" lon="1.84325">
        <ele>211.15</ele>
        <time>2013-08-20T10:17:20Z</time>
      </trkpt>
      <trkpt lat="49.05587" lon="1.84315">
        <ele>210.19</ele>
        <time>2013-08-20T10:17:32Z</time>
      </trkpt>
      <trkpt lat="49.05567" lon="1.84303">
        <ele>210.67</ele>
        <time>2013-08-20T10:17:43Z</time>
      </trkpt>
      <trkpt lat="49.05565" lon="1.84293">
        <ele>209.7</ele>
        <time>2013-08-20T10:17:54Z</time>
      </trkpt>
      <trkpt lat="49.05564" lon="1.84292">
        <ele>210.19</ele>
        <time>2013-08-20T10:17:56Z</time>
      </trkpt>
      <trkpt lat="49.05558" lon="1.84291">
        <ele>209.22</ele>
        <time>2013-08-20T10:18:05Z</time>
      </trkpt>
      <trkpt lat="49.05551" lon="1.84292">
        <ele>208.74</ele>
        <time>2013-08-20T10:18:12Z</time>
      </trkpt>
      <trkpt lat="49.05533" lon="1.84291">
        <ele>208.26</ele>
        <time>2013-08-20T10:18:24Z</time>
      </trkpt>
      <trkpt lat="49.05523" lon="1.84289">
        <ele>208.74</ele>
        <time>2013-08-20T10:18:31Z</time>
      </trkpt>
      <trkpt lat="49.05521" lon="1.84289">
        <ele>208.26</ele>
        <time>2013-08-20T10:18:32Z</time>
      </trkpt>
      <trkpt lat="49.0552" lon="1.84288">
        <ele>208.26</ele>
        <time>2013-08-20T10:18:33Z</time>
      </trkpt>
      <trkpt lat="49.05509" lon="1.84286">
        <ele>207.3</ele>
        <time>2013-08-20T10:18:42Z</time>
      </trkpt>
      <trkpt lat="49.05491" lon="1.84282">
        <ele>207.3</ele>
        <time>2013-08-20T10:18:54Z</time>
      </trkpt>
      <trkpt lat="49.05487" lon="1.84281">
        <ele>206.82</ele>
        <time>2013-08-20T10:18:58Z</time>
      </trkpt>
      <trkpt lat="49.05476" lon="1.84283">
        <ele>206.82</ele>
        <time>2013-08-20T10:19:09Z</time>
      </trkpt>
      <trkpt lat="49.0544" lon="1.84273">
        <ele>207.3</ele>
        <time>2013-08-20T10:19:20Z</time>
      </trkpt>
      <trkpt lat="49.05436" lon="1.84269">
        <ele>207.3</ele>
        <time>2013-08-20T10:19:28Z</time>
      </trkpt>
      <trkpt lat="49.05438" lon="1.84256">
        <ele>206.82</ele>
        <time>2013-08-20T10:19:35Z</time>
      </trkpt>
      <trkpt lat="49.0542" lon="1.84252">
        <ele>208.26</ele>
        <time>2013-08-20T10:19:51Z</time>
      </trkpt>
      <trkpt lat="49.05397" lon="1.84249">
        <ele>208.74</ele>
        <time>2013-08-20T10:20:07Z</time>
      </trkpt>
      <trkpt lat="49.05375" lon="1.84245">
        <ele>208.74</ele>
        <time>2013-08-20T10:20:23Z</time>
      </trkpt>
      <trkpt lat="49.05355" lon="1.84244">
        <ele>208.74</ele>
        <time>2013-08-20T10:20:36Z</time>
      </trkpt>
      <trkpt lat="49.05334" lon="1.84247">
        <ele>209.22</ele>
        <time>2013-08-20T10:20:52Z</time>
      </trkpt>
      <trkpt lat="49.05316" lon="1.84251">
        <ele>209.22</ele>
        <time>2013-08-20T10:21:07Z</time>
      </trkpt>
      <trkpt lat="49.0531" lon="1.84252">
        <ele>209.22</ele>
        <time>2013-08-20T10:21:11Z</time>
      </trkpt>
      <trkpt lat="49.05308" lon="1.84252">
        <ele>209.22</ele>
        <time>2013-08-20T10:21:12Z</time>
      </trkpt>
      <trkpt lat="49.05289" lon="1.84257">
        <ele>209.22</ele>
        <time>2013-08-20T10:21:28Z</time>
      </trkpt>
      <trkpt lat="49.05285" lon="1.84255">
        <ele>208.74</ele>
        <time>2013-08-20T10:21:31Z</time>
      </trkpt>
      <trkpt lat="49.05284" lon="1.84255">
        <ele>208.74</ele>
        <time>2013-08-20T10:21:32Z</time>
      </trkpt>
      <trkpt lat="49.05283" lon="1.84254">
        <ele>209.22</ele>
        <time>2013-08-20T10:21:33Z</time>
      </trkpt>
      <trkpt lat="49.05281" lon="1.84255">
        <ele>209.22</ele>
        <time>2013-08-20T10:21:34Z</time>
      </trkpt>
      <trkpt lat="49.0528" lon="1.84254">
        <ele>208.74</ele>
        <time>2013-08-20T10:21:35Z</time>
      </trkpt>
      <trkpt lat="49.05279" lon="1.84255">
        <ele>209.22</ele>
        <time>2013-08-20T10:21:36Z</time>
      </trkpt>
      <trkpt lat="49.05278" lon="1.84255">
        <ele>209.22</ele>
        <time>2013-08-20T10:21:37Z</time>
      </trkpt>
      <trkpt lat="49.05277" lon="1.84256">
        <ele>209.22</ele>
        <time>2013-08-20T10:21:38Z</time>
      </trkpt>
      <trkpt lat="49.05275" lon="1.84256">
        <ele>209.22</ele>
        <time>2013-08-20T10:21:39Z</time>
      </trkpt>
      <trkpt lat="49.05274" lon="1.84256">
        <ele>209.22</ele>
        <time>2013-08-20T10:21:40Z</time>
      </trkpt>
      <trkpt lat="49.05267" lon="1.84259">
        <ele>209.22</ele>
        <time>2013-08-20T10:21:46Z</time>
      </trkpt>
      <trkpt lat="49.05265" lon="1.8426">
        <ele>209.22</ele>
        <time>2013-08-20T10:21:47Z</time>
      </trkpt>
      <trkpt lat="49.05242" lon="1.84279">
        <ele>209.22</ele>
        <time>2013-08-20T10:22:06Z</time>
      </trkpt>
      <trkpt lat="49.05223" lon="1.84295">
        <ele>208.26</ele>
        <time>2013-08-20T10:22:22Z</time>
      </trkpt>
      <trkpt lat="49.05202" lon="1.84311">
        <ele>207.3</ele>
        <time>2013-08-20T10:22:40Z</time>
      </trkpt>
      <trkpt lat="49.05199" lon="1.84313">
        <ele>207.78</ele>
        <time>2013-08-20T10:22:42Z</time>
      </trkpt>
      <trkpt lat="49.05196" lon="1.84317">
        <ele>207.3</ele>
        <time>2013-08-20T10:22:46Z</time>
      </trkpt>
      <trkpt lat="49.05179" lon="1.84333">
        <ele>207.3</ele>
        <time>2013-08-20T10:23:02Z</time>
      </trkpt>
      <trkpt lat="49.05161" lon="1.84348">
        <ele>206.82</ele>
        <time>2013-08-20T10:23:18Z</time>
      </trkpt>
      <trkpt lat="49.05146" lon="1.84358">
        <ele>206.34</ele>
        <time>2013-08-20T10:23:31Z</time>
      </trkpt>
      <trkpt lat="49.05144" lon="1.84358">
        <ele>206.34</ele>
        <time>2013-08-20T10:23:33Z</time>
      </trkpt>
      <trkpt lat="49.05124" lon="1.84364">
        <ele>205.86</ele>
        <time>2013-08-20T10:23:49Z</time>
      </trkpt>
      <trkpt lat="49.05103" lon="1.84369">
        <ele>206.34</ele>
        <time>2013-08-20T10:24:07Z</time>
      </trkpt>
      <trkpt lat="49.05095" lon="1.8437">
        <ele>206.82</ele>
        <time>2013-08-20T10:24:15Z</time>
      </trkpt>
      <trkpt lat="49.05076" lon="1.84375">
        <ele>205.86</ele>
        <time>2013-08-20T10:24:30Z</time>
      </trkpt>
      <trkpt lat="49.05055" lon="1.84381">
        <ele>205.86</ele>
        <time>2013-08-20T10:24:46Z</time>
      </trkpt>
      <trkpt lat="49.05035" lon="1.8439">
        <ele>204.42</ele>
        <time>2013-08-20T10:25:03Z</time>
      </trkpt>
      <trkpt lat="49.05029" lon="1.84392">
        <ele>204.42</ele>
        <time>2013-08-20T10:25:07Z</time>
      </trkpt>
      <trkpt lat="49.05009" lon="1.84387">
        <ele>203.46</ele>
        <time>2013-08-20T10:25:23Z</time>
      </trkpt>
      <trkpt lat="49.05001" lon="1.84386">
        <ele>203.94</ele>
        <time>2013-08-20T10:25:29Z</time>
      </trkpt>
      <trkpt lat="49.0499" lon="1.84392">
        <ele>203.46</ele>
        <time>2013-08-20T10:25:41Z</time>
      </trkpt>
      <trkpt lat="49.0497" lon="1.84388">
        <ele>202.01</ele>
        <time>2013-08-20T10:25:58Z</time>
      </trkpt>
      <trkpt lat="49.04952" lon="1.84383">
        <ele>200.09</ele>
        <time>2013-08-20T10:26:13Z</time>
      </trkpt>
      <trkpt lat="49.04936" lon="1.84375">
        <ele>198.17</ele>
        <time>2013-08-20T10:26:27Z</time>
      </trkpt>
      <trkpt lat="49.04923" lon="1.84368">
        <ele>197.21</ele>
        <time>2013-08-20T10:26:41Z</time>
      </trkpt>
      <trkpt lat="49.0492" lon="1.84367">
        <ele>197.21</ele>
        <time>2013-08-20T10:27:00Z</time>
      </trkpt>
      <trkpt lat="49.0492" lon="1.84369">
        <ele>196.73</ele>
        <time>2013-08-20T10:27:19Z</time>
      </trkpt>
      <trkpt lat="49.04918" lon="1.84368">
        <ele>196.73</ele>
        <time>2013-08-20T10:27:34Z</time>
      </trkpt>
      <trkpt lat="49.04918" lon="1.84367">
        <ele>196.73</ele>
        <time>2013-08-20T10:27:54Z</time>
      </trkpt>
      <trkpt lat="49.04918" lon="1.8437">
        <ele>196.73</ele>
        <time>2013-08-20T10:28:11Z</time>
      </trkpt>
      <trkpt lat="49.04915" lon="1.84371">
        <ele>196.73</ele>
        <time>2013-08-20T10:28:33Z</time>
      </trkpt>
      <trkpt lat="49.04914" lon="1.84373">
        <ele>196.25</ele>
        <time>2013-08-20T10:28:54Z</time>
      </trkpt>
      <trkpt lat="49.04913" lon="1.84374">
        <ele>196.25</ele>
        <time>2013-08-20T10:29:20Z</time>
      </trkpt>
      <trkpt lat="49.04917" lon="1.84373">
        <ele>196.73</ele>
        <time>2013-08-20T10:29:36Z</time>
      </trkpt>
      <trkpt lat="49.04918" lon="1.84373">
        <ele>195.28</ele>
        <time>2013-08-20T10:29:53Z</time>
      </trkpt>
      <trkpt lat="49.04918" lon="1.84378">
        <ele>194.8</ele>
        <time>2013-08-20T10:30:12Z</time>
      </trkpt>
      <trkpt lat="49.04917" lon="1.84376">
        <ele>194.8</ele>
        <time>2013-08-20T10:30:24Z</time>
      </trkpt>
      <trkpt lat="49.04918" lon="1.84372">
        <ele>195.28</ele>
        <time>2013-08-20T10:30:47Z</time>
      </trkpt>
      <trkpt lat="49.04918" lon="1.84374">
        <ele>194.32</ele>
        <time>2013-08-20T10:31:00Z</time>
      </trkpt>
      <trkpt lat="49.04917" lon="1.84378">
        <ele>194.32</ele>
        <time>2013-08-20T10:31:03Z</time>
      </trkpt>
      <trkpt lat="49.04918" lon="1.84381">
        <ele>193.84</ele>
        <time>2013-08-20T10:31:05Z</time>
      </trkpt>
      <trkpt lat="49.04921" lon="1.84386">
        <ele>193.36</ele>
        <time>2013-08-20T10:31:09Z</time>
      </trkpt>
      <trkpt lat="49.04921" lon="1.84411">
        <ele>191.92</ele>
        <time>2013-08-20T10:31:22Z</time>
      </trkpt>
      <trkpt lat="49.04921" lon="1.84415">
        <ele>191.92</ele>
        <time>2013-08-20T10:31:24Z</time>
      </trkpt>
      <trkpt lat="49.0492" lon="1.8444">
        <ele>189.04</ele>
        <time>2013-08-20T10:31:37Z</time>
      </trkpt>
      <trkpt lat="49.0492" lon="1.84443">
        <ele>189.04</ele>
        <time>2013-08-20T10:31:38Z</time>
      </trkpt>
      <trkpt lat="49.04919" lon="1.84448">
        <ele>189.52</ele>
        <time>2013-08-20T10:31:41Z</time>
      </trkpt>
      <trkpt lat="49.04919" lon="1.8445">
        <ele>189.52</ele>
        <time>2013-08-20T10:31:42Z</time>
      </trkpt>
      <trkpt lat="49.04919" lon="1.84453">
        <ele>189.04</ele>
        <time>2013-08-20T10:31:43Z</time>
      </trkpt>
      <trkpt lat="49.04919" lon="1.84459">
        <ele>188.56</ele>
        <time>2013-08-20T10:31:49Z</time>
      </trkpt>
      <trkpt lat="49.04919" lon="1.84462">
        <ele>188.08</ele>
        <time>2013-08-20T10:31:50Z</time>
      </trkpt>
      <trkpt lat="49.04919" lon="1.8447">
        <ele>188.08</ele>
        <time>2013-08-20T10:31:55Z</time>
      </trkpt>
      <trkpt lat="49.04919" lon="1.84472">
        <ele>188.08</ele>
        <time>2013-08-20T10:31:56Z</time>
      </trkpt>
      <trkpt lat="49.04919" lon="1.84475">
        <ele>187.59</ele>
        <time>2013-08-20T10:31:57Z</time>
      </trkpt>
      <trkpt lat="49.04919" lon="1.84494">
        <ele>186.63</ele>
        <time>2013-08-20T10:32:07Z</time>
      </trkpt>
      <trkpt lat="49.04919" lon="1.84502">
        <ele>185.67</ele>
        <time>2013-08-20T10:32:12Z</time>
      </trkpt>
      <trkpt lat="49.04919" lon="1.84504">
        <ele>186.15</ele>
        <time>2013-08-20T10:32:13Z</time>
      </trkpt>
      <trkpt lat="49.04919" lon="1.84506">
        <ele>185.67</ele>
        <time>2013-08-20T10:32:14Z</time>
      </trkpt>
      <trkpt lat="49.04919" lon="1.84509">
        <ele>185.67</ele>
        <time>2013-08-20T10:32:15Z</time>
      </trkpt>
      <trkpt lat="49.04919" lon="1.84511">
        <ele>185.19</ele>
        <time>2013-08-20T10:32:16Z</time>
      </trkpt>
      <trkpt lat="49.04919" lon="1.84513">
        <ele>185.19</ele>
        <time>2013-08-20T10:32:17Z</time>
      </trkpt>
      <trkpt lat="49.04917" lon="1.84532">
        <ele>184.71</ele>
        <time>2013-08-20T10:32:27Z</time>
      </trkpt>
      <trkpt lat="49.04918" lon="1.84546">
        <ele>184.23</ele>
        <time>2013-08-20T10:32:33Z</time>
      </trkpt>
      <trkpt lat="49.04918" lon="1.84552">
        <ele>183.27</ele>
        <time>2013-08-20T10:32:38Z</time>
      </trkpt>
      <trkpt lat="49.04921" lon="1.84565">
        <ele>183.27</ele>
        <time>2013-08-20T10:32:43Z</time>
      </trkpt>
      <trkpt lat="49.04921" lon="1.84567">
        <ele>183.27</ele>
        <time>2013-08-20T10:32:44Z</time>
      </trkpt>
      <trkpt lat="49.04922" lon="1.84569">
        <ele>183.27</ele>
        <time>2013-08-20T10:32:45Z</time>
      </trkpt>
      <trkpt lat="49.04922" lon="1.84571">
        <ele>183.75</ele>
        <time>2013-08-20T10:32:46Z</time>
      </trkpt>
      <trkpt lat="49.04923" lon="1.84573">
        <ele>183.27</ele>
        <time>2013-08-20T10:32:47Z</time>
      </trkpt>
      <trkpt lat="49.04925" lon="1.84583">
        <ele>182.31</ele>
        <time>2013-08-20T10:32:54Z</time>
      </trkpt>
      <trkpt lat="49.04927" lon="1.84601">
        <ele>182.31</ele>
        <time>2013-08-20T10:33:03Z</time>
      </trkpt>
      <trkpt lat="49.04928" lon="1.84603">
        <ele>182.31</ele>
        <time>2013-08-20T10:33:04Z</time>
      </trkpt>
      <trkpt lat="49.04928" lon="1.84604">
        <ele>181.83</ele>
        <time>2013-08-20T10:33:05Z</time>
      </trkpt>
      <trkpt lat="49.04929" lon="1.84616">
        <ele>181.83</ele>
        <time>2013-08-20T10:33:13Z</time>
      </trkpt>
      <trkpt lat="49.0493" lon="1.84618">
        <ele>181.83</ele>
        <time>2013-08-20T10:33:14Z</time>
      </trkpt>
      <trkpt lat="49.04931" lon="1.84621">
        <ele>181.35</ele>
        <time>2013-08-20T10:33:16Z</time>
      </trkpt>
      <trkpt lat="49.04931" lon="1.84623">
        <ele>181.35</ele>
        <time>2013-08-20T10:33:17Z</time>
      </trkpt>
      <trkpt lat="49.04932" lon="1.84625">
        <ele>181.35</ele>
        <time>2013-08-20T10:33:18Z</time>
      </trkpt>
      <trkpt lat="49.04932" lon="1.84627">
        <ele>180.87</ele>
        <time>2013-08-20T10:33:19Z</time>
      </trkpt>
      <trkpt lat="49.04932" lon="1.84629">
        <ele>180.87</ele>
        <time>2013-08-20T10:33:20Z</time>
      </trkpt>
      <trkpt lat="49.0493" lon="1.84638">
        <ele>179.9</ele>
        <time>2013-08-20T10:33:27Z</time>
      </trkpt>
      <trkpt lat="49.04928" lon="1.84644">
        <ele>179.9</ele>
        <time>2013-08-20T10:33:31Z</time>
      </trkpt>
      <trkpt lat="49.04927" lon="1.84647">
        <ele>179.42</ele>
        <time>2013-08-20T10:33:32Z</time>
      </trkpt>
      <trkpt lat="49.04924" lon="1.84655">
        <ele>178.94</ele>
        <time>2013-08-20T10:33:35Z</time>
      </trkpt>
      <trkpt lat="49.04923" lon="1.84656">
        <ele>178.94</ele>
        <time>2013-08-20T10:33:36Z</time>
      </trkpt>
      <trkpt lat="49.04921" lon="1.84659">
        <ele>178.46</ele>
        <time>2013-08-20T10:33:40Z</time>
      </trkpt>
      <trkpt lat="49.0492" lon="1.84661">
        <ele>178.46</ele>
        <time>2013-08-20T10:33:41Z</time>
      </trkpt>
      <trkpt lat="49.04916" lon="1.84678">
        <ele>177.98</ele>
        <time>2013-08-20T10:33:52Z</time>
      </trkpt>
      <trkpt lat="49.04915" lon="1.8468">
        <ele>177.98</ele>
        <time>2013-08-20T10:33:53Z</time>
      </trkpt>
      <trkpt lat="49.04915" lon="1.84684">
        <ele>177.98</ele>
        <time>2013-08-20T10:33:54Z</time>
      </trkpt>
      <trkpt lat="49.04914" lon="1.84688">
        <ele>177.98</ele>
        <time>2013-08-20T10:33:55Z</time>
      </trkpt>
      <trkpt lat="49.04915" lon="1.84691">
        <ele>177.5</ele>
        <time>2013-08-20T10:33:56Z</time>
      </trkpt>
      <trkpt lat="49.04915" lon="1.84694">
        <ele>177.5</ele>
        <time>2013-08-20T10:33:57Z</time>
      </trkpt>
      <trkpt lat="49.04916" lon="1.84711">
        <ele>177.5</ele>
        <time>2013-08-20T10:34:05Z</time>
      </trkpt>
      <trkpt lat="49.04911" lon="1.84722">
        <ele>176.54</ele>
        <time>2013-08-20T10:34:13Z</time>
      </trkpt>
      <trkpt lat="49.04904" lon="1.84727">
        <ele>175.58</ele>
        <time>2013-08-20T10:34:22Z</time>
      </trkpt>
      <trkpt lat="49.04895" lon="1.84729">
        <ele>175.1</ele>
        <time>2013-08-20T10:34:30Z</time>
      </trkpt>
      <trkpt lat="49.0489" lon="1.84731">
        <ele>175.1</ele>
        <time>2013-08-20T10:34:33Z</time>
      </trkpt>
      <trkpt lat="49.04885" lon="1.84729">
        <ele>174.62</ele>
        <time>2013-08-20T10:34:37Z</time>
      </trkpt>
      <trkpt lat="49.04884" lon="1.84729">
        <ele>174.14</ele>
        <time>2013-08-20T10:34:38Z</time>
      </trkpt>
      <trkpt lat="49.04864" lon="1.84732">
        <ele>173.66</ele>
        <time>2013-08-20T10:34:49Z</time>
      </trkpt>
      <trkpt lat="49.04849" lon="1.84731">
        <ele>171.73</ele>
        <time>2013-08-20T10:34:59Z</time>
      </trkpt>
      <trkpt lat="49.04833" lon="1.84732">
        <ele>170.29</ele>
        <time>2013-08-20T10:35:14Z</time>
      </trkpt>
      <trkpt lat="49.04808" lon="1.84726">
        <ele>169.33</ele>
        <time>2013-08-20T10:35:30Z</time>
      </trkpt>
      <trkpt lat="49.04782" lon="1.84723">
        <ele>168.85</ele>
        <time>2013-08-20T10:35:45Z</time>
      </trkpt>
      <trkpt lat="49.04768" lon="1.84734">
        <ele>166.45</ele>
        <time>2013-08-20T10:36:00Z</time>
      </trkpt>
      <trkpt lat="49.04765" lon="1.84737">
        <ele>166.45</ele>
        <time>2013-08-20T10:36:02Z</time>
      </trkpt>
      <trkpt lat="49.04763" lon="1.84738">
        <ele>166.45</ele>
        <time>2013-08-20T10:36:03Z</time>
      </trkpt>
      <trkpt lat="49.04761" lon="1.84739">
        <ele>166.45</ele>
        <time>2013-08-20T10:36:04Z</time>
      </trkpt>
      <trkpt lat="49.04758" lon="1.84745">
        <ele>165.96</ele>
        <time>2013-08-20T10:36:07Z</time>
      </trkpt>
      <trkpt lat="49.04756" lon="1.84759">
        <ele>165.48</ele>
        <time>2013-08-20T10:36:20Z</time>
      </trkpt>
      <trkpt lat="49.04753" lon="1.84773">
        <ele>164.52</ele>
        <time>2013-08-20T10:36:30Z</time>
      </trkpt>
      <trkpt lat="49.04752" lon="1.84777">
        <ele>163.56</ele>
        <time>2013-08-20T10:36:33Z</time>
      </trkpt>
      <trkpt lat="49.04732" lon="1.84806">
        <ele>162.12</ele>
        <time>2013-08-20T10:36:48Z</time>
      </trkpt>
      <trkpt lat="49.04721" lon="1.8482">
        <ele>160.2</ele>
        <time>2013-08-20T10:36:59Z</time>
      </trkpt>
      <trkpt lat="49.0472" lon="1.84821">
        <ele>160.2</ele>
        <time>2013-08-20T10:37:00Z</time>
      </trkpt>
      <trkpt lat="49.04708" lon="1.84837">
        <ele>158.75</ele>
        <time>2013-08-20T10:37:13Z</time>
      </trkpt>
      <trkpt lat="49.047" lon="1.8485">
        <ele>157.31</ele>
        <time>2013-08-20T10:37:21Z</time>
      </trkpt>
      <trkpt lat="49.04699" lon="1.84852">
        <ele>157.31</ele>
        <time>2013-08-20T10:37:22Z</time>
      </trkpt>
      <trkpt lat="49.04698" lon="1.84854">
        <ele>157.31</ele>
        <time>2013-08-20T10:37:23Z</time>
      </trkpt>
      <trkpt lat="49.04698" lon="1.84856">
        <ele>156.83</ele>
        <time>2013-08-20T10:37:24Z</time>
      </trkpt>
      <trkpt lat="49.04697" lon="1.84858">
        <ele>156.83</ele>
        <time>2013-08-20T10:37:25Z</time>
      </trkpt>
      <trkpt lat="49.04697" lon="1.84881">
        <ele>154.91</ele>
        <time>2013-08-20T10:37:36Z</time>
      </trkpt>
      <trkpt lat="49.04705" lon="1.84916">
        <ele>153.47</ele>
        <time>2013-08-20T10:37:50Z</time>
      </trkpt>
      <trkpt lat="49.04711" lon="1.84939">
        <ele>152.99</ele>
        <time>2013-08-20T10:38:04Z</time>
      </trkpt>
      <trkpt lat="49.04717" lon="1.84956">
        <ele>151.54</ele>
        <time>2013-08-20T10:38:11Z</time>
      </trkpt>
      <trkpt lat="49.04718" lon="1.84964">
        <ele>151.54</ele>
        <time>2013-08-20T10:38:21Z</time>
      </trkpt>
      <trkpt lat="49.04718" lon="1.84966">
        <ele>150.58</ele>
        <time>2013-08-20T10:38:22Z</time>
      </trkpt>
      <trkpt lat="49.04718" lon="1.84968">
        <ele>151.06</ele>
        <time>2013-08-20T10:38:23Z</time>
      </trkpt>
      <trkpt lat="49.04717" lon="1.8497">
        <ele>151.06</ele>
        <time>2013-08-20T10:38:24Z</time>
      </trkpt>
      <trkpt lat="49.04716" lon="1.84972">
        <ele>151.06</ele>
        <time>2013-08-20T10:38:25Z</time>
      </trkpt>
      <trkpt lat="49.04715" lon="1.84975">
        <ele>151.06</ele>
        <time>2013-08-20T10:38:26Z</time>
      </trkpt>
      <trkpt lat="49.04715" lon="1.84977">
        <ele>150.1</ele>
        <time>2013-08-20T10:38:27Z</time>
      </trkpt>
      <trkpt lat="49.04714" lon="1.8498">
        <ele>150.1</ele>
        <time>2013-08-20T10:38:28Z</time>
      </trkpt>
      <trkpt lat="49.04715" lon="1.84982">
        <ele>150.1</ele>
        <time>2013-08-20T10:38:29Z</time>
      </trkpt>
      <trkpt lat="49.04715" lon="1.84984">
        <ele>150.1</ele>
        <time>2013-08-20T10:38:30Z</time>
      </trkpt>
      <trkpt lat="49.04717" lon="1.84987">
        <ele>150.1</ele>
        <time>2013-08-20T10:38:33Z</time>
      </trkpt>
      <trkpt lat="49.04719" lon="1.84988">
        <ele>149.62</ele>
        <time>2013-08-20T10:38:34Z</time>
      </trkpt>
      <trkpt lat="49.04722" lon="1.84991">
        <ele>150.1</ele>
        <time>2013-08-20T10:38:45Z</time>
      </trkpt>
      <trkpt lat="49.04721" lon="1.84996">
        <ele>149.14</ele>
        <time>2013-08-20T10:38:59Z</time>
      </trkpt>
      <trkpt lat="49.04718" lon="1.85005">
        <ele>148.66</ele>
        <time>2013-08-20T10:39:09Z</time>
      </trkpt>
      <trkpt lat="49.04721" lon="1.8502">
        <ele>148.66</ele>
        <time>2013-08-20T10:39:21Z</time>
      </trkpt>
      <trkpt lat="49.04724" lon="1.85031">
        <ele>147.7</ele>
        <time>2013-08-20T10:39:32Z</time>
      </trkpt>
      <trkpt lat="49.04725" lon="1.85036">
        <ele>147.7</ele>
        <time>2013-08-20T10:39:35Z</time>
      </trkpt>
      <trkpt lat="49.04727" lon="1.85043">
        <ele>147.22</ele>
        <time>2013-08-20T10:39:41Z</time>
      </trkpt>
      <trkpt lat="49.0473" lon="1.85056">
        <ele>147.22</ele>
        <time>2013-08-20T10:39:50Z</time>
      </trkpt>
      <trkpt lat="49.04736" lon="1.85071">
        <ele>147.22</ele>
        <time>2013-08-20T10:40:02Z</time>
      </trkpt>
      <trkpt lat="49.04743" lon="1.85085">
        <ele>147.7</ele>
        <time>2013-08-20T10:40:14Z</time>
      </trkpt>
      <trkpt lat="49.04751" lon="1.85101">
        <ele>147.7</ele>
        <time>2013-08-20T10:40:27Z</time>
      </trkpt>
      <trkpt lat="49.04755" lon="1.85107">
        <ele>147.7</ele>
        <time>2013-08-20T10:40:33Z</time>
      </trkpt>
      <trkpt lat="49.0476" lon="1.85124">
        <ele>147.22</ele>
        <time>2013-08-20T10:40:44Z</time>
      </trkpt>
      <trkpt lat="49.04764" lon="1.85136">
        <ele>146.74</ele>
        <time>2013-08-20T10:40:56Z</time>
      </trkpt>
      <trkpt lat="49.04764" lon="1.85138">
        <ele>146.74</ele>
        <time>2013-08-20T10:40:57Z</time>
      </trkpt>
      <trkpt lat="49.0477" lon="1.85153">
        <ele>146.26</ele>
        <time>2013-08-20T10:41:08Z</time>
      </trkpt>
      <trkpt lat="49.04771" lon="1.85154">
        <ele>146.26</ele>
        <time>2013-08-20T10:41:09Z</time>
      </trkpt>
      <trkpt lat="49.04773" lon="1.85162">
        <ele>145.78</ele>
        <time>2013-08-20T10:41:15Z</time>
      </trkpt>
      <trkpt lat="49.04779" lon="1.85184">
        <ele>145.78</ele>
        <time>2013-08-20T10:41:29Z</time>
      </trkpt>
      <trkpt lat="49.04779" lon="1.85186">
        <ele>145.78</ele>
        <time>2013-08-20T10:41:31Z</time>
      </trkpt>
      <trkpt lat="49.04787" lon="1.85199">
        <ele>145.3</ele>
        <time>2013-08-20T10:41:43Z</time>
      </trkpt>
      <trkpt lat="49.04791" lon="1.852">
        <ele>145.78</ele>
        <time>2013-08-20T10:41:47Z</time>
      </trkpt>
      <trkpt lat="49.04797" lon="1.85202">
        <ele>143.37</ele>
        <time>2013-08-20T10:42:03Z</time>
      </trkpt>
      <trkpt lat="49.04798" lon="1.85207">
        <ele>143.37</ele>
        <time>2013-08-20T10:42:07Z</time>
      </trkpt>
      <trkpt lat="49.04798" lon="1.85211">
        <ele>143.37</ele>
        <time>2013-08-20T10:42:09Z</time>
      </trkpt>
      <trkpt lat="49.04797" lon="1.85219">
        <ele>144.82</ele>
        <time>2013-08-20T10:42:20Z</time>
      </trkpt>
      <trkpt lat="49.048" lon="1.85223">
        <ele>143.85</ele>
        <time>2013-08-20T10:42:35Z</time>
      </trkpt>
    </trkseg>
  </trk>
</gpx>